Provisional Data: Susquehanna River near Rockville, PA


Please select a monitoring station.
Please select start date.
Please select start date.

Toggle Unit: C/F Toggle Unit: C/F
Sample Time Temperature (C) Temperature (F) Specific Conductivity (mS/cm) pH   Turbidity (NTU+) DO (mg/L)
12/23/2022 12:00:00 AM 9.78 49.604 7.69 7.74 -5
12/23/2022 12:15:00 AM 9.78 49.604 7.69 7.86 -5
12/23/2022 12:30:00 AM 9.9 49.82 7.68 8.07 -5
12/23/2022 12:45:00 AM 9.9 49.82 7.68 8.61 -5
12/23/2022 1:00:00 AM 10.02 50.036 7.67 9.71 -5
12/23/2022 1:15:00 AM 10.01 50.018 7.67 11.45 -5
12/23/2022 1:30:00 AM 10.15 50.27 7.66 13.3 -5
12/23/2022 1:45:00 AM 10.27 50.486 7.66 14.54 -5
12/23/2022 2:00:00 AM 10.27 50.486 7.66 16.2 -5
12/23/2022 2:15:00 AM 10.27 50.486 7.66 17.83 -5
12/23/2022 2:30:00 AM 10.38 50.684 7.63 19.25 -5
12/23/2022 2:45:00 AM 10.39 50.702 7.63 20.41 -5
12/23/2022 3:00:00 AM 10.38 50.684 7.62 21.15 -5
12/23/2022 3:15:00 AM 10.53 50.954 7.62 22.24 -5
12/23/2022 3:30:00 AM 10.53 50.954 7.63 22.71 -5
12/23/2022 3:45:00 AM 10.64 51.152 7.62 23.94 -5
12/23/2022 4:00:00 AM 10.65 51.17 7.61 23.29 -5
12/23/2022 4:15:00 AM 10.76 51.368 7.61 23.69 -5
12/23/2022 4:30:00 AM 10.76 51.368 7.61 24.55 -5
12/23/2022 4:45:00 AM 10.76 51.368 7.6 25.85 -5
12/23/2022 5:00:00 AM 10.76 51.368 7.59 26.11 -5
12/23/2022 5:15:00 AM 10.76 51.368 7.58 27.95 -5
12/23/2022 5:30:00 AM 10.76 51.368 7.57 27.41 -5
12/23/2022 5:45:00 AM 10.76 51.368 7.56 27.55 -5
12/23/2022 6:00:00 AM 10.76 51.368 7.55 26.9 -5
12/23/2022 6:15:00 AM 10.76 51.368 7.55 27.38 -5
12/23/2022 6:30:00 AM 10.65 51.17 7.54 27.31 -5
12/23/2022 6:45:00 AM 10.76 51.368 7.54 27.16 -5
12/23/2022 7:00:00 AM 10.76 51.368 7.53 27.24 -5
12/23/2022 7:15:00 AM 10.76 51.368 7.53 26.8 -5
12/23/2022 7:30:00 AM 10.76 51.368 7.52 26.72 -5
12/23/2022 7:45:00 AM 10.76 51.368 7.51 25.73 -5
12/23/2022 8:00:00 AM 10.65 51.17 7.51 25.69 -5
12/23/2022 8:15:00 AM 10.65 51.17 7.51 25.35 -5
12/23/2022 8:30:00 AM 10.65 51.17 7.5 26.72 -5
12/23/2022 8:45:00 AM 10.76 51.368 7.5 27.63 -5
12/23/2022 9:00:00 AM 10.76 51.368 7.5 27.79 -5
12/23/2022 9:15:00 AM 10.76 51.368 7.5 27.7 -5
12/23/2022 9:30:00 AM 10.76 51.368 7.49 28.43 -5
12/23/2022 9:45:00 AM 10.65 51.17 7.49 27.9 -5
12/23/2022 10:00:00 AM 10.64 51.152 7.48 29.13 -5
12/23/2022 10:15:00 AM 10.64 51.152 7.48 29.14 -5
12/23/2022 10:30:00 AM 10.53 50.954 7.48 30.55 -5
12/23/2022 10:45:00 AM 10.27 50.486 7.48 32.67 -5
12/23/2022 11:00:00 AM 10.27 50.486 7.48 33.46 -5
12/23/2022 11:15:00 AM 10.01 50.018 7.48 35.11 -5
12/23/2022 11:30:00 AM 9.9 49.82 7.47 36.97 -5
12/23/2022 11:45:00 AM 9.77 49.586 7.46 39.04 -5
12/23/2022 12:00:00 PM 9.64 49.352 7.46 41.53 -5
12/23/2022 12:15:00 PM 9.65 49.37 7.46 42.59 -5
12/23/2022 12:30:00 PM 9.53 49.154 7.46 44.85 -5
12/23/2022 12:45:00 PM 9.14 48.452 7.45 48.91 -5
12/23/2022 1:00:00 PM 8.89 48.002 7.43 52.14 -5
12/23/2022 1:15:00 PM 9.03 48.254 7.44 53.45 -5
12/23/2022 1:30:00 PM 8.89 48.002 7.42 55.08 -5
12/23/2022 1:45:00 PM 9.03 48.254 7.41 53.41 -5
12/23/2022 2:00:00 PM 9.03 48.254 7.35 51.83 -5
12/23/2022 2:15:00 PM 9.27 48.686 7.29 50.23 -5
12/23/2022 2:30:00 PM 9.03 48.254 7.37 52.62 -5
12/23/2022 2:45:00 PM 9.14 48.452 7.34 75.23 -5
12/23/2022 3:00:00 PM 9.9 49.82 7.32 70.37 -5
12/23/2022 3:15:00 PM 10.27 50.486 7.35 68.87 -5
12/23/2022 3:30:00 PM 10.38 50.684 7.36 51.02 -5
12/23/2022 3:45:00 PM 10.27 50.486 7.38 52.31 -5
12/23/2022 4:00:00 PM 10.76 51.368 7.39 44.26 -5
12/23/2022 4:15:00 PM 10.53 50.954 7.39 66.05 -5
12/23/2022 4:30:00 PM 10.27 50.486 7.39 50.11 -5
12/23/2022 4:45:00 PM 9.78 49.604 7.39 53.14 -5
12/23/2022 5:00:00 PM 9.27 48.686 7.39 47.16 -5
12/23/2022 5:15:00 PM 9.03 48.254 7.39 49.63 -5
12/23/2022 5:30:00 PM 9.4 48.92 7.39 48.64 -5
12/23/2022 5:45:00 PM 10.01 50.018 7.39 38.72 -5
12/23/2022 6:00:00 PM 9.65 49.37 7.39 67.54 -5
12/23/2022 6:15:00 PM 9.77 49.586 7.4 67.56 -5
12/23/2022 6:30:00 PM 9.65 49.37 7.4 51.37 -5
12/23/2022 6:45:00 PM 10.38 50.684 7.45 50.92 -5
12/23/2022 7:00:00 PM 11.14 52.052 7.48 49.14 -5
12/23/2022 7:15:00 PM 11.39 52.502 7.52 47.24 -5
12/23/2022 7:30:00 PM 11.1 51.98 7.5 35.7 -5
12/23/2022 7:45:00 PM 10.91 51.638 7.49 28.08 -5
12/23/2022 8:00:00 PM 10.76 51.368 7.49 24.71 -5
12/23/2022 8:15:00 PM 10.38 50.684 7.47 22.61 -5
12/23/2022 8:30:00 PM 10.64 51.152 7.44 20.41 -5
12/23/2022 8:45:00 PM 11.02 51.836 7.44 18.45 -5
12/23/2022 9:00:00 PM 11.14 52.052 7.43 17.55 -5
12/23/2022 9:15:00 PM 11.02 51.836 7.41 17.08 -5
12/23/2022 9:30:00 PM 11.02 51.836 7.41 19.63 -5
12/23/2022 9:45:00 PM 10.27 50.486 7.38 20.67 -5
12/23/2022 10:00:00 PM 10.15 50.27 7.32 19.02 -5
12/23/2022 10:15:00 PM 10.15 50.27 7.37 18.16 -5
12/23/2022 10:30:00 PM 10.01 50.018 7.37 16.23 -5
12/23/2022 10:45:00 PM 9.9 49.82 7.35 16.59 -5
12/23/2022 11:00:00 PM 10.01 50.018 7.34 16.79 -5
12/23/2022 11:15:00 PM 9.77 49.586 7.33 19.92 -5
12/23/2022 11:30:00 PM 9.77 49.586 7.3 45.15 -5
12/23/2022 11:45:00 PM 9.77 49.586 7.29 41.46 -5
12/24/2022 12:00:00 AM 9.9 49.82 7.31 33.09 -5
12/24/2022 12:15:00 AM 10.15 50.27 7.35 37.5 -5
12/24/2022 12:30:00 AM 10.15 50.27 7.37 37.81 -5
12/24/2022 12:45:00 AM 10.27 50.486 7.36 39.15 -5
12/24/2022 1:00:00 AM 10.27 50.486 7.36 34.71 -5
12/24/2022 1:15:00 AM 9.65 49.37 7.33 35.71 -5
12/24/2022 1:30:00 AM 9.4 48.92 7.29 35.27 -5
12/24/2022 1:45:00 AM 8.89 48.002 7.26 33.4 -5
12/24/2022 2:00:00 AM 8.66 47.588 7.22 26.76 -5
12/24/2022 2:15:00 AM 8.4 47.12 7.21 21.34 -5
12/24/2022 2:30:00 AM 8.66 47.588 7.21 27 -5
12/24/2022 2:45:00 AM 9.4 48.92 7.23 54.26 -5
12/24/2022 3:00:00 AM 10.01 50.018 7.21 45.24 -5
12/24/2022 3:15:00 AM 10.15 50.27 7.24 46.61 -5
12/24/2022 3:30:00 AM 10.15 50.27 7.25 44.13 -5
12/24/2022 3:45:00 AM 10.01 50.018 7.27 46.23 -5
12/24/2022 4:00:00 AM 10.38 50.684 7.27 12.36 -5
12/24/2022 4:15:00 AM 10.64 51.152 7.27 3.7 -5
12/24/2022 4:30:00 AM 11.02 51.836 7.29 3.61 -5
12/24/2022 4:45:00 AM 11.51 52.718 7.3 4.5 -5
12/24/2022 5:00:00 AM 11.64 52.952 7.3 4.58 -5
12/24/2022 5:15:00 AM 11.93 53.474 7.3 4.57 -5
12/24/2022 5:30:00 AM 12.15 53.87 7.31 4.51 -5
12/24/2022 5:45:00 AM 12.26 54.068 7.3 4.5 -5
12/24/2022 6:00:00 AM 12.4 54.32 7.29 4.49 -5
12/24/2022 6:15:00 AM 12.52 54.536 7.3 4.5 -5
12/24/2022 6:30:00 AM 12.63 54.734 7.31 4.52 -5
12/24/2022 6:45:00 AM 12.63 54.734 7.3 4.51 -5
12/24/2022 7:00:00 AM 12.63 54.734 7.29 4.52 -5
12/24/2022 7:15:00 AM 12.63 54.734 7.28 4.54 -5
12/24/2022 7:30:00 AM 12.63 54.734 7.28 4.53 -5
12/24/2022 7:45:00 AM 12.63 54.734 7.26 4.58 -5
12/24/2022 8:00:00 AM 12.63 54.734 7.25 4.61 -5
12/24/2022 8:15:00 AM 12.63 54.734 7.27 4.65 -5
12/24/2022 8:30:00 AM 12.63 54.734 7.27 4.67 -5
12/24/2022 8:45:00 AM 12.63 54.734 7.26 4.71 -5
12/24/2022 9:00:00 AM 12.78 55.004 7.26 4.76 -5
12/24/2022 9:15:00 AM 12.78 55.004 7.25 4.81 -5
12/24/2022 9:30:00 AM 12.78 55.004 7.25 4.89 -5
12/24/2022 9:45:00 AM 12.63 54.734 7.24 4.94 -5
12/24/2022 10:00:00 AM 12.63 54.734 7.24 5.03 -5
12/24/2022 10:15:00 AM 12.63 54.734 7.24 5.16 -5
12/24/2022 10:30:00 AM 12.4 54.32 7.24 5.35 -5
12/24/2022 10:45:00 AM 12.26 54.068 7.23 5.62 -5
12/24/2022 11:00:00 AM 12.15 53.87 7.21 5.93 -5
12/24/2022 11:15:00 AM 12.4 54.32 7.2 6.23 -5
12/24/2022 11:30:00 AM 12.78 55.004 7.2 6.53 -5
12/24/2022 11:45:00 AM 13.01 55.418 7.19 6.82 -5
12/24/2022 12:00:00 PM 13.26 55.868 7.19 7.16 -5
12/24/2022 12:15:00 PM 13.26 55.868 7.19 7.46 -5
12/24/2022 12:30:00 PM 13.52 56.336 7.18 7.71 -5
12/24/2022 12:45:00 PM 13.66 56.588 7.18 7.99 -5
12/24/2022 1:00:00 PM 13.78 56.804 7.17 8.31 -5
12/24/2022 1:15:00 PM 13.91 57.038 7.16 8.63 -5
12/24/2022 1:30:00 PM 14.1 57.38 7.16 8.96 -5
12/24/2022 1:45:00 PM 14.15 57.47 7.16 9.28 -5
12/24/2022 2:00:00 PM 14.29 57.722 7.16 9.57 -5
12/24/2022 2:15:00 PM 14.29 57.722 7.16 9.85 -5
12/24/2022 2:30:00 PM 14.29 57.722 7.15 10.13 -5
12/24/2022 2:45:00 PM 14.29 57.722 7.15 10.42 -5
12/24/2022 3:00:00 PM 14.41 57.938 7.14 10.65 -5
12/24/2022 3:15:00 PM 14.52 58.136 7.14 10.9 -5
12/24/2022 3:30:00 PM 14.52 58.136 7.14 11.12 -5
12/24/2022 3:45:00 PM 14.52 58.136 7.13 11.36 -5
12/24/2022 4:00:00 PM 14.67 58.406 7.13 11.57 -5
12/24/2022 4:15:00 PM 14.78 58.604 7.12 11.79 -5
12/24/2022 4:30:00 PM 14.9 58.82 7.11 11.98 -5
12/24/2022 4:45:00 PM 14.9 58.82 7.1 12.18 -5
12/24/2022 5:00:00 PM 14.9 58.82 7.1 12.41 -5
12/24/2022 5:15:00 PM 15.04 59.072 7.09 12.59 -5
12/24/2022 5:30:00 PM 14.9 58.82 7.09 12.82 -5
12/24/2022 5:45:00 PM 15.03 59.054 7.09 12.97 -5
12/24/2022 6:00:00 PM 15.15 59.27 7.09 13.15 -5
12/24/2022 6:15:00 PM 15.15 59.27 7.08 13.31 -5
12/24/2022 6:30:00 PM 15.27 59.486 7.08 13.47 -5
12/24/2022 6:45:00 PM 15.28 59.504 7.07 13.59 -5
12/24/2022 7:00:00 PM 15.15 59.27 7.06 13.73 -5
12/24/2022 7:15:00 PM 14.9 58.82 7.06 13.89 -5
12/24/2022 7:30:00 PM 14.78 58.604 7.04 14.03 -5
12/24/2022 7:45:00 PM 14.78 58.604 7.03 14.16 -5
12/24/2022 8:00:00 PM 15.15 59.27 7.02 14.25 -5
12/24/2022 8:15:00 PM 15.27 59.486 7.01 14.34 -5
12/24/2022 8:30:00 PM 15.28 59.504 7 14.43 -5
12/24/2022 8:45:00 PM 15.41 59.738 7 14.53 -5
12/24/2022 9:00:00 PM 15.41 59.738 7 14.64 -5
12/24/2022 9:15:00 PM 15.53 59.954 6.99 14.68 -5
12/24/2022 9:30:00 PM 15.53 59.954 6.99 14.75 -5
12/24/2022 9:45:00 PM 15.53 59.954 6.98 14.81 -5
12/24/2022 10:00:00 PM 15.41 59.738 6.98 14.83 -5
12/24/2022 10:15:00 PM 15.28 59.504 6.97 14.86 -5
12/24/2022 10:30:00 PM 15.28 59.504 6.96 14.87 -5
12/24/2022 10:45:00 PM 15.15 59.27 6.96 14.9 -5
12/24/2022 11:00:00 PM 15.15 59.27 6.96 14.92 -5
12/24/2022 11:15:00 PM 15.04 59.072 6.95 14.94 -5
12/24/2022 11:30:00 PM 15.04 59.072 6.95 14.93 -5
12/24/2022 11:45:00 PM 15.04 59.072 6.94 14.97 -5
12/25/2022 12:00:00 AM 15.04 59.072 6.93 15 -5
12/25/2022 12:15:00 AM 15.03 59.054 6.92 15.02 -5
12/25/2022 12:30:00 AM 15.03 59.054 6.92 15.05 -5
12/25/2022 12:45:00 AM 15.04 59.072 6.91 15.08 -5
12/25/2022 1:00:00 AM 15.04 59.072 6.91 15.08 -5
12/25/2022 1:15:00 AM 15.03 59.054 6.9 15.09 -5
12/25/2022 1:30:00 AM 15.03 59.054 6.89 15.08 -5
12/25/2022 1:45:00 AM 15.04 59.072 6.89 15.1 -5
12/25/2022 2:00:00 AM 15.04 59.072 6.88 15.12 -5
12/25/2022 2:15:00 AM 15.04 59.072 6.88 15.13 -5
12/25/2022 2:30:00 AM 15.03 59.054 6.88 15.14 -5
12/25/2022 2:45:00 AM 15.04 59.072 6.87 15.14 -5
12/25/2022 3:00:00 AM 15.04 59.072 6.87 15.13 -5
12/25/2022 3:15:00 AM 14.9 58.82 6.86 15.13 -5
12/25/2022 3:30:00 AM 15.03 59.054 6.86 15.15 -5
12/25/2022 3:45:00 AM 15.04 59.072 6.86 15.17 -5
12/25/2022 4:00:00 AM 14.9 58.82 6.86 15.17 -5
12/25/2022 4:15:00 AM 14.9 58.82 6.85 15.17 -5
12/25/2022 4:30:00 AM 15.04 59.072 6.85 15.19 -5
12/25/2022 4:45:00 AM 15.03 59.054 6.84 15.16 -5
12/25/2022 5:00:00 AM 15.15 59.27 6.84 15.18 -5
12/25/2022 5:15:00 AM 15.15 59.27 6.84 15.16 -5
12/25/2022 5:30:00 AM 15.15 59.27 6.84 15.18 -5
12/25/2022 5:45:00 AM 15.15 59.27 6.84 15.17 -5
12/25/2022 6:00:00 AM 15.15 59.27 6.84 15.17 -5
12/25/2022 6:15:00 AM 15.15 59.27 6.84 15.21 -5
12/25/2022 6:30:00 AM 15.15 59.27 6.84 15.2 -5
12/25/2022 6:45:00 AM 15.04 59.072 6.84 15.2 -5
12/25/2022 7:00:00 AM 15.04 59.072 6.83 15.21 -5
12/25/2022 7:15:00 AM 15.03 59.054 6.83 15.22 -5
12/25/2022 7:30:00 AM 15.04 59.072 6.83 15.21 -5
12/25/2022 7:45:00 AM 15.04 59.072 6.83 15.2 -5
12/25/2022 8:00:00 AM 15.04 59.072 6.83 15.2 -5
12/25/2022 8:15:00 AM 15.04 59.072 6.83 15.21 -5
12/25/2022 8:30:00 AM 15.04 59.072 6.83 15.22 -5
12/25/2022 8:45:00 AM 14.9 58.82 6.83 15.22 -5
12/25/2022 9:00:00 AM 14.78 58.604 6.83 15.23 -5
12/25/2022 9:15:00 AM 14.78 58.604 6.83 15.23 -5
12/25/2022 9:30:00 AM 14.78 58.604 6.82 15.22 -5
12/25/2022 9:45:00 AM 14.52 58.136 6.83 15.21 -5
12/25/2022 10:00:00 AM 14.41 57.938 6.83 15.22 -5
12/25/2022 10:15:00 AM 14.67 58.406 6.82 15.22 -5
12/25/2022 10:30:00 AM 14.78 58.604 6.82 15.25 -5
12/25/2022 10:45:00 AM 14.78 58.604 6.83 15.22 -5
12/25/2022 11:00:00 AM 14.9 58.82 6.83 15.22 -5
12/25/2022 11:15:00 AM 14.9 58.82 6.83 15.24 -5
12/25/2022 11:30:00 AM 15.04 59.072 6.83 15.25 -5
12/25/2022 11:45:00 AM 15.03 59.054 6.85 15.26 -5
12/25/2022 12:00:00 PM 15.15 59.27 6.85 15.26 -5
12/25/2022 12:15:00 PM 15.15 59.27 6.85 15.26 -5
12/25/2022 12:30:00 PM 15.28 59.504 6.85 15.24 -5
12/25/2022 12:45:00 PM 15.15 59.27 6.85 15.25 -5
12/25/2022 1:00:00 PM 15.15 59.27 6.84 15.25 -5
12/25/2022 1:15:00 PM 15.15 59.27 6.84 15.26 -5
12/25/2022 1:30:00 PM 15.15 59.27 6.85 15.26 -5
12/25/2022 1:45:00 PM 15.03 59.054 6.85 15.26 -5
12/25/2022 2:00:00 PM 14.9 58.82 6.85 15.25 -5
12/25/2022 2:15:00 PM 15.03 59.054 6.83 15.24 -5
12/25/2022 2:30:00 PM 15.04 59.072 6.84 15.23 -5
12/25/2022 2:45:00 PM 15.15 59.27 6.85 15.26 -5
12/25/2022 3:00:00 PM 15.15 59.27 6.86 15.23 -5
12/25/2022 3:15:00 PM 15.41 59.738 6.85 15.24 -5
12/25/2022 3:30:00 PM 15.53 59.954 6.86 15.22 -5
12/25/2022 3:45:00 PM 15.28 59.504 6.87 15.26 -5
12/25/2022 4:00:00 PM 15.15 59.27 6.86 15.26 -5
12/25/2022 4:15:00 PM 15.15 59.27 6.87 15.25 -5
12/25/2022 4:30:00 PM 15.04 59.072 6.86 15.27 -5
12/25/2022 4:45:00 PM 14.9 58.82 6.86 15.25 -5
12/25/2022 5:00:00 PM 14.78 58.604 6.86 15.25 -5
12/25/2022 5:15:00 PM 14.9 58.82 6.86 15.25 -5
12/25/2022 5:30:00 PM 14.9 58.82 6.86 15.27 -5
12/25/2022 5:45:00 PM 14.9 58.82 6.86 15.26 -5
12/25/2022 6:00:00 PM 14.9 58.82 6.86 15.25 -5
12/25/2022 6:15:00 PM 14.9 58.82 6.86 15.26 -5
12/25/2022 6:30:00 PM 15.04 59.072 6.86 15.27 -5
12/25/2022 6:45:00 PM 14.9 58.82 6.86 15.28 -5
12/25/2022 7:00:00 PM 15.03 59.054 6.86 15.26 -5
12/25/2022 7:15:00 PM 15.15 59.27 6.87 15.26 -5
12/25/2022 7:30:00 PM 15.04 59.072 6.87 15.25 -5
12/25/2022 7:45:00 PM 15.03 59.054 6.87 15.26 -5
12/25/2022 8:00:00 PM 15.15 59.27 6.87 15.26 -5
12/25/2022 8:15:00 PM 15.28 59.504 6.87 15.25 -5
12/25/2022 8:30:00 PM 15.15 59.27 6.87 15.26 -5
12/25/2022 8:45:00 PM 15.04 59.072 6.89 3.89 -5
12/25/2022 9:00:00 PM 14.67 58.406 6.85 4.17 -5
12/25/2022 9:15:00 PM 15.03 59.054 6.95 4.61 -5
12/25/2022 9:30:00 PM 15.15 59.27 6.91 5.54 -5
12/25/2022 9:45:00 PM 15.15 59.27 6.88 7.19 -5
12/25/2022 10:00:00 PM 15.15 59.27 6.86 8.72 -5
12/25/2022 10:15:00 PM 15.28 59.504 6.84 9.93 -5
12/25/2022 10:30:00 PM 15.15 59.27 6.83 10.9 -5
12/25/2022 10:45:00 PM 15.04 59.072 6.82 11.64 -5
12/25/2022 11:00:00 PM 14.9 58.82 6.81 12.22 -5
12/25/2022 11:15:00 PM 14.9 58.82 6.79 12.64 -5
12/25/2022 11:30:00 PM 14.9 58.82 6.78 12.95 -5
12/25/2022 11:45:00 PM 15.04 59.072 6.78 13.24 -5
12/26/2022 12:00:00 AM 15.15 59.27 6.78 13.5 -5
12/26/2022 12:15:00 AM 15.28 59.504 6.78 13.74 -5
12/26/2022 12:30:00 AM 15.41 59.738 6.78 13.96 -5
12/26/2022 12:45:00 AM 15.41 59.738 6.78 14.13 -5
12/26/2022 1:00:00 AM 15.53 59.954 6.78 14.31 -5
12/26/2022 1:15:00 AM 15.53 59.954 6.78 14.44 -5
12/26/2022 1:30:00 AM 15.58 60.044 6.79 14.56 -5
12/26/2022 1:45:00 AM 15.65 60.17 6.79 14.67 -5
12/26/2022 2:00:00 AM 15.6 60.08 6.79 14.76 -5
12/26/2022 2:15:00 AM 15.65 60.17 6.8 14.86 -5
12/26/2022 2:30:00 AM 15.78 60.404 6.8 14.93 -5
12/26/2022 2:45:00 AM 15.78 60.404 6.82 15.04 -5
12/26/2022 3:00:00 AM 15.65 60.17 6.83 15.1 -5
12/26/2022 3:15:00 AM 15.78 60.404 6.84 15.16 -5
12/26/2022 3:30:00 AM 15.78 60.404 6.85 15.24 -5
12/26/2022 3:45:00 AM 15.78 60.404 6.86 15.32 -5
12/26/2022 4:00:00 AM 15.65 60.17 6.87 15.41 -5
12/26/2022 4:15:00 AM 15.41 59.738 6.88 15.53 -5
12/26/2022 4:30:00 AM 15.28 59.504 6.87 15.6 -5
12/26/2022 4:45:00 AM 15.15 59.27 6.87 15.71 -5
12/26/2022 5:00:00 AM 15.15 59.27 6.89 15.78 -5
12/26/2022 5:15:00 AM 15.15 59.27 6.91 15.81 -5
12/26/2022 5:30:00 AM 15.28 59.504 6.89 15.83 -5
12/26/2022 5:45:00 AM 15.28 59.504 6.88 15.87 -5
12/26/2022 6:00:00 AM 15.28 59.504 6.88 15.86 -5
12/26/2022 6:15:00 AM 15.41 59.738 6.88 15.9 -5
12/26/2022 6:30:00 AM 15.41 59.738 6.86 15.89 -5
12/26/2022 6:45:00 AM 15.41 59.738 6.84 15.9 -5
12/26/2022 7:00:00 AM 15.41 59.738 6.82 15.94 -5
12/26/2022 7:15:00 AM 15.53 59.954 6.81 15.96 -5
12/26/2022 7:30:00 AM 15.53 59.954 6.81 15.98 -5
12/26/2022 7:45:00 AM 15.65 60.17 6.8 15.96 -5
12/26/2022 8:00:00 AM 15.78 60.404 6.79 16.03 -5
12/26/2022 8:15:00 AM 15.91 60.638 6.79 16.03 -5
12/26/2022 8:30:00 AM 16.02 60.836 6.78 16 -5
12/26/2022 8:45:00 AM 16.02 60.836 6.78 16.01 -5
12/26/2022 9:00:00 AM 15.91 60.638 6.78 16.04 -5
12/26/2022 9:15:00 AM 15.91 60.638 6.77 16.05 -5
12/26/2022 9:30:00 AM 15.91 60.638 6.76 16.05 -5
12/26/2022 9:45:00 AM 15.91 60.638 6.75 16.05 -5
12/26/2022 10:00:00 AM 15.78 60.404 6.74 16.07 -5
12/26/2022 10:15:00 AM 15.78 60.404 6.73 16.1 -5
12/26/2022 10:30:00 AM 15.78 60.404 6.72 16.1 -5
12/26/2022 10:45:00 AM 15.65 60.17 6.72 16.11 -5
12/26/2022 11:00:00 AM 15.53 59.954 6.71 16.1 -5
12/26/2022 11:15:00 AM 15.53 59.954 6.7 16.09 -5
12/26/2022 11:30:00 AM 15.53 59.954 6.88 30.99 -5
12/26/2022 11:45:00 AM 14.78 58.604 6.89 2.3 -5
12/26/2022 12:00:00 PM 14.67 58.406 7 3.92 -5
12/26/2022 12:15:00 PM 14.67 58.406 7.1 4.29 -5
12/26/2022 12:30:00 PM 14.52 58.136 7.23 4.86 -5
12/26/2022 12:45:00 PM 14.52 58.136 7.46 5.51 -5
12/26/2022 1:00:00 PM 14.52 58.136 7.56 6.26 -5
12/26/2022 1:15:00 PM 14.52 58.136 7.56 7.13 -5
12/26/2022 1:30:00 PM 14.52 58.136 7.55 8.18 -5
12/26/2022 1:45:00 PM 14.78 58.604 7.53 9.35 -5
12/26/2022 2:00:00 PM 15.28 59.504 7.51 10.49 -5
12/26/2022 2:15:00 PM 15.78 60.404 7.51 11.56 -5
12/26/2022 2:30:00 PM 16.02 60.836 7.51 12.63 -5
12/26/2022 2:45:00 PM 16.16 61.088 7.52 13.76 -5
12/26/2022 3:00:00 PM 16.39 61.502 7.52 14.7 -5
12/26/2022 3:15:00 PM 16.65 61.97 7.53 15.59 -5
12/26/2022 3:30:00 PM 16.78 62.204 7.54 16.35 -5
12/26/2022 3:45:00 PM 16.91 62.438 7.54 17.03 -5
12/26/2022 4:00:00 PM 17.02 62.636 7.54 17.6 -5
12/26/2022 4:15:00 PM 17.02 62.636 7.54 18.16 -5
12/26/2022 4:30:00 PM 17.15 62.87 7.55 18.67 -5
12/26/2022 4:45:00 PM 17.15 62.87 7.55 19.13 -5
12/26/2022 5:00:00 PM 17.28 63.104 7.56 19.59 -5
12/26/2022 5:15:00 PM 17.28 63.104 7.57 20.04 -5
12/26/2022 5:30:00 PM 17.28 63.104 7.57 20.42 -5
12/26/2022 5:45:00 PM 17.41 63.338 7.58 20.74 -5
12/26/2022 6:00:00 PM 17.41 63.338 7.59 20.99 -5
12/26/2022 6:15:00 PM 17.52 63.536 7.6 21.17 -5
12/26/2022 6:30:00 PM 17.65 63.77 7.61 21.29 -5
12/26/2022 6:45:00 PM 17.66 63.788 7.62 21.4 -5
12/26/2022 7:00:00 PM 17.78 64.004 7.63 21.49 -5
12/26/2022 7:15:00 PM 18.02 64.436 7.64 21.57 -5
12/26/2022 7:30:00 PM 18.14 64.652 7.65 21.61 -5
12/26/2022 7:45:00 PM 18.25 64.85 7.66 21.7 -5
12/26/2022 8:00:00 PM 18.4 65.12 7.66 21.7 -5
12/26/2022 8:15:00 PM 18.51 65.318 7.67 21.75 -5
12/26/2022 8:30:00 PM 18.63 65.534 7.68 21.77 -5
12/26/2022 8:45:00 PM 18.63 65.534 7.69 21.8 -5
12/26/2022 9:00:00 PM 18.77 65.786 7.7 21.82 -5
12/26/2022 9:15:00 PM 18.77 65.786 7.71 21.84 -5
12/26/2022 9:30:00 PM 18.9 66.02 7.72 21.86 -5
12/26/2022 9:45:00 PM 18.9 66.02 7.73 21.87 -5
12/26/2022 10:00:00 PM 19.03 66.254 7.73 21.9 -5
12/26/2022 10:15:00 PM 19.16 66.488 7.74 21.9 -5
12/26/2022 10:30:00 PM 19.29 66.722 7.75 21.9 -5
12/26/2022 10:45:00 PM 19.29 66.722 7.76 21.9 -5
12/26/2022 11:00:00 PM 19.41 66.938 7.77 21.93 -5
12/26/2022 11:15:00 PM 19.53 67.154 7.78 21.95 -5
12/26/2022 11:30:00 PM 19.66 67.388 7.78 21.93 -5
12/26/2022 11:45:00 PM 19.69 67.442 7.79 21.94 -5
12/27/2022 12:00:00 AM 19.77 67.586 7.79 21.94 -5
12/27/2022 12:15:00 AM 20.03 68.054 7.8 21.92 -5
12/27/2022 12:30:00 AM 20.14 68.252 7.8 21.93 -5
12/27/2022 12:45:00 AM 20.29 68.522 7.81 21.95 -5
12/27/2022 1:00:00 AM 20.4 68.72 7.81 21.97 -5
12/27/2022 1:15:00 AM 20.4 68.72 7.81 21.97 -5
12/27/2022 1:30:00 AM 20.52 68.936 7.82 21.97 -5
12/27/2022 1:45:00 AM 20.52 68.936 7.82 21.96 -5
12/27/2022 2:00:00 AM 20.66 69.188 7.83 21.98 -5
12/27/2022 2:15:00 AM 20.66 69.188 7.83 21.96 -5
12/27/2022 2:30:00 AM 20.78 69.404 7.83 21.98 -5
12/27/2022 2:45:00 AM 20.78 69.404 7.84 21.99 -5
12/27/2022 3:00:00 AM 20.9 69.62 7.84 21.98 -5
12/27/2022 3:15:00 AM 20.9 69.62 7.84 22.01 -5
12/27/2022 3:30:00 AM 20.91 69.638 7.84 21.99 -5
12/27/2022 3:45:00 AM 21.04 69.872 7.84 22 -5
12/27/2022 4:00:00 AM 21.04 69.872 7.84 21.97 -5
12/27/2022 4:15:00 AM 21.15 70.07 7.84 21.99 -5
12/27/2022 4:30:00 AM 21.28 70.304 7.84 22.01 -5
12/27/2022 4:45:00 AM 21.28 70.304 7.83 21.99 -5
12/27/2022 5:00:00 AM 21.28 70.304 7.83 22 -5
12/27/2022 5:15:00 AM 21.41 70.538 7.83 21.99 -5
12/27/2022 5:30:00 AM 21.41 70.538 7.83 21.99 -5
12/27/2022 5:45:00 AM 21.54 70.772 7.82 22.01 -5
12/27/2022 6:00:00 AM 21.53 70.754 7.82 21.99 -5
12/27/2022 6:15:00 AM 21.53 70.754 7.82 21.98 -5
12/27/2022 6:30:00 AM 21.65 70.97 7.82 21.99 -5
12/27/2022 6:45:00 AM 21.65 70.97 7.82 22 -5
12/27/2022 7:00:00 AM 21.65 70.97 7.82 21.99 -5
12/27/2022 7:15:00 AM 21.65 70.97 7.82 22 -5
12/27/2022 7:30:00 AM 21.78 71.204 7.82 22.01 -5
12/27/2022 7:45:00 AM 21.91 71.438 7.82 22 -5
12/27/2022 8:00:00 AM 21.91 71.438 7.82 22 -5
12/27/2022 8:15:00 AM 22.02 71.636 7.82 22.02 -5
12/27/2022 8:30:00 AM 22.02 71.636 7.82 22.01 -5
12/27/2022 8:45:00 AM 22.16 71.888 7.82 22 -5
12/27/2022 9:00:00 AM 22.16 71.888 7.82 22.03 -5
12/27/2022 9:15:00 AM 22.28 72.104 7.82 21.98 -5
12/27/2022 9:30:00 AM 22.28 72.104 7.82 22.03 -5
12/27/2022 9:45:00 AM 22.28 72.104 7.82 22 -5
12/27/2022 10:00:00 AM 22.36 72.248 7.82 22.03 -5
12/27/2022 10:15:00 AM 22.39 72.302 7.82 22.01 -5
12/27/2022 10:30:00 AM 22.39 72.302 7.82 22.02 -5
12/27/2022 10:45:00 AM 22.39 72.302 7.82 22.01 -5
12/27/2022 11:00:00 AM 22.54 72.57201 7.82 22.01 -5
12/27/2022 11:15:00 AM 22.54 72.57201 7.82 22.01 -5
12/27/2022 11:30:00 AM 22.54 72.57201 7.82 22.02 -5
12/27/2022 11:45:00 AM 22.65 72.77 7.82 22.01 -5
12/27/2022 12:00:00 PM 22.65 72.77 7.83 22.01 -5
12/27/2022 12:15:00 PM 22.78 73.004 7.83 22.03 -5
12/27/2022 12:30:00 PM 22.78 73.004 7.83 22.03 -5
12/27/2022 12:45:00 PM 22.91 73.238 7.83 22.02 -5
12/27/2022 1:00:00 PM 22.91 73.238 7.83 22.02 -5
12/27/2022 1:15:00 PM 23.02 73.436 7.84 22.03 -5
12/27/2022 1:30:00 PM 23.02 73.436 7.84 22.01 -5
12/27/2022 1:45:00 PM 23.02 73.436 7.84 22.02 -5
12/27/2022 2:00:00 PM 23.14 73.652 7.84 22.04 -5
12/27/2022 2:15:00 PM 23.14 73.652 7.85 22.02 -5
12/27/2022 2:30:00 PM 23.28 73.904 7.85 22.01 -5
12/27/2022 2:45:00 PM 23.28 73.904 7.85 22.04 -5
12/27/2022 3:00:00 PM 23.27 73.886 7.86 22.03 -5
12/27/2022 3:15:00 PM 23.28 73.904 7.86 22.03 -5
12/27/2022 3:30:00 PM 23.28 73.904 7.86 22.02 -5
12/27/2022 3:45:00 PM 23.28 73.904 7.86 22.04 -5
12/27/2022 4:00:00 PM 23.28 73.904 7.87 22.03 -5
12/27/2022 4:15:00 PM 23.27 73.886 7.87 22.03 -5
12/27/2022 4:30:00 PM 23.4 74.12 7.87 22.05 -5
12/27/2022 4:45:00 PM 23.4 74.12 7.87 22.04 -5
12/27/2022 5:00:00 PM 23.4 74.12 7.88 22.03 -5
12/27/2022 5:15:00 PM 23.4 74.12 7.88 22.03 -5
12/27/2022 5:30:00 PM 23.52 74.336 7.88 22.05 -5
12/27/2022 5:45:00 PM 23.52 74.336 7.89 22.03 -5
12/27/2022 6:00:00 PM 23.52 74.336 7.89 22.05 -5
12/27/2022 6:15:00 PM 23.65 74.57 7.9 22.05 -5
12/27/2022 6:30:00 PM 23.77 74.786 7.9 22.05 -5
12/27/2022 6:45:00 PM 23.77 74.786 7.91 22.05 -5
12/27/2022 7:00:00 PM 23.89 75.002 7.91 22.06 -5
12/27/2022 7:15:00 PM 23.89 75.002 7.92 22.03 -5
12/27/2022 7:30:00 PM 23.89 75.002 7.92 22.05 -5
12/27/2022 7:45:00 PM 24.03 75.254 7.92 22.05 -5
12/27/2022 8:00:00 PM 24.03 75.254 7.92 22.05 -5
12/27/2022 8:15:00 PM 24.03 75.254 7.92 22.04 -5
12/27/2022 8:30:00 PM 24.16 75.488 7.92 22.07 -5
12/27/2022 8:45:00 PM 24.16 75.488 7.92 22.06 -5
12/27/2022 9:00:00 PM 24.16 75.488 7.92 22.06 -5
12/27/2022 9:15:00 PM 24.27 75.686 7.92 22.05 -5
12/27/2022 9:30:00 PM 24.28 75.704 7.92 22.06 -5
12/27/2022 9:45:00 PM 24.28 75.704 7.92 22.07 -5
12/27/2022 10:00:00 PM 24.28 75.704 7.91 22.06 -5
12/27/2022 10:15:00 PM 24.42 75.956 7.92 22.06 -5
12/27/2022 10:30:00 PM 24.42 75.956 7.92 22.08 -5
12/27/2022 10:45:00 PM 24.42 75.956 7.92 22.08 -5
12/27/2022 11:00:00 PM 24.53 76.154 7.92 22.07 -5
12/27/2022 11:15:00 PM 24.53 76.154 7.92 22.08 -5
12/27/2022 11:30:00 PM 24.54 76.172 7.92 22.08 -5
12/27/2022 11:45:00 PM 24.54 76.172 7.92 22.09 -5
12/28/2022 12:00:00 AM 24.54 76.172 7.92 22.1 -5
12/28/2022 12:15:00 AM 24.54 76.172 7.92 22.12 -5
12/28/2022 12:30:00 AM 24.66 76.388 7.92 22.11 -5
12/28/2022 12:45:00 AM 24.66 76.388 7.92 22.1 -5
12/28/2022 1:00:00 AM 24.66 76.388 7.92 22.07 -5
12/28/2022 1:15:00 AM 24.66 76.388 7.93 22.1 -5
12/28/2022 1:30:00 AM 24.79 76.622 7.93 22.1 -5
12/28/2022 1:45:00 AM 24.79 76.622 7.93 22.11 -5
12/28/2022 2:00:00 AM 24.79 76.622 7.93 22.11 -5
12/28/2022 2:15:00 AM 24.9 76.82 7.93 22.09 -5
12/28/2022 2:30:00 AM 24.91 76.838 7.93 22.08 -5
12/28/2022 2:45:00 AM 24.91 76.838 7.93 22.1 -5
12/28/2022 3:00:00 AM 25.03 77.054 7.93 22.1 -5
12/28/2022 3:15:00 AM 24.9 76.82 7.93 22.1 -5
12/28/2022 3:30:00 AM 25.03 77.054 7.93 22.11 -5
12/28/2022 3:45:00 AM 25.03 77.054 7.93 22.11 -5
12/28/2022 4:00:00 AM 25.03 77.054 7.93 22.11 -5
12/28/2022 4:15:00 AM 25.03 77.054 7.93 22.12 -5
12/28/2022 4:30:00 AM 25.03 77.054 7.93 22.12 -5
12/28/2022 4:45:00 AM 25.03 77.054 7.93 22.12 -5
12/28/2022 5:00:00 AM 25.03 77.054 7.93 22.1 -5
12/28/2022 5:15:00 AM 25.03 77.054 7.93 22.12 -5
12/28/2022 5:30:00 AM 25.03 77.054 7.92 22.12 -5
12/28/2022 5:45:00 AM 24.9 76.82 7.92 22.12 -5
12/28/2022 6:00:00 AM 24.9 76.82 7.92 22.13 -5
12/28/2022 6:15:00 AM 24.9 76.82 7.92 22.11 -5
12/28/2022 6:30:00 AM 24.9 76.82 7.91 22.12 -5
12/28/2022 6:45:00 AM 24.79 76.622 7.91 22.12 -5
12/28/2022 7:00:00 AM 24.79 76.622 7.9 22.09 -5
12/28/2022 7:15:00 AM 24.17 75.506 7.67 3 -5
12/28/2022 7:30:00 AM 24.03 75.254 7.57 2.25 -5
12/28/2022 7:45:00 AM 24.03 75.254 7.54 5.06 -5
12/28/2022 8:00:00 AM 24.03 75.254 7.46 19.96 -5
12/28/2022 8:15:00 AM 24.03 75.254 7.41 29.83 -5
12/28/2022 8:30:00 AM 24.03 75.254 7.38 33.3 -5
12/28/2022 8:45:00 AM 24.03 75.254 7.37 17.1 -5
12/28/2022 9:00:00 AM 24.16 75.488 7.34 9.22 -5
12/28/2022 9:15:00 AM 24.16 75.488 7.33 9.11 -5
12/28/2022 9:30:00 AM 24.16 75.488 7.31 6.43 -5
12/28/2022 9:45:00 AM 24.16 75.488 7.3 4.05 -5
12/28/2022 10:00:00 AM 24.16 75.488 7.29 4.11 -5
12/28/2022 10:15:00 AM 24.16 75.488 7.29 3.81 -5
12/28/2022 10:30:00 AM 24.28 75.704 7.27 3.67 -5
12/28/2022 10:45:00 AM 24.28 75.704 7.26 3.42 -5
12/28/2022 11:00:00 AM 24.28 75.704 7.25 3.31 -5
12/28/2022 11:15:00 AM 24.28 75.704 7.24 2.92 -5
12/28/2022 11:30:00 AM 24.42 75.956 7.24 2.91 -5
12/28/2022 11:45:00 AM 24.42 75.956 7.23 2.93 -5
12/28/2022 12:00:00 PM 24.42 75.956 7.22 2.89 -5
12/28/2022 12:15:00 PM 24.54 76.172 7.22 2.91 -5
12/28/2022 12:30:00 PM 24.66 76.388 7.21 2.97 -5
12/28/2022 12:45:00 PM 24.66 76.388 7.2 2.94 -5
12/28/2022 1:00:00 PM 24.79 76.622 7.19 2.83 -5
12/28/2022 1:15:00 PM 24.79 76.622 7.18 2.72 -5
12/28/2022 1:30:00 PM 24.9 76.82 7.16 2.72 -5
12/28/2022 1:45:00 PM 25.03 77.054 7.16 2.69 -5
12/28/2022 2:00:00 PM 25.16 77.288 7.16 2.69 -5
12/28/2022 2:15:00 PM 25.29 77.522 7.15 2.75 -5
12/28/2022 2:30:00 PM 25.4 77.72 7.15 2.73 -5
12/28/2022 2:45:00 PM 25.4 77.72 7.15 2.73 -5
12/28/2022 3:00:00 PM 25.53 77.954 7.14 2.74 -5
12/28/2022 3:15:00 PM 25.53 77.954 7.14 2.71 -5
12/28/2022 3:30:00 PM 25.66 78.188 7.14 2.69 -5
12/28/2022 3:45:00 PM 25.66 78.188 7.14 2.69 -5
12/28/2022 4:00:00 PM 25.77 78.386 7.14 2.63 -5
12/28/2022 4:15:00 PM 25.77 78.386 7.14 2.64 -5
12/28/2022 4:30:00 PM 25.91 78.638 7.13 2.64 -5
12/28/2022 4:45:00 PM 26.03 78.854 7.13 2.65 -5
12/28/2022 5:00:00 PM 26.03 78.854 7.12 2.62 -5
12/28/2022 5:15:00 PM 26.03 78.854 7.11 2.6 -5
12/28/2022 5:30:00 PM 26.03 78.854 7.1 2.58 -5
12/28/2022 5:45:00 PM 26.03 78.854 7.11 2.55 -5
12/28/2022 6:00:00 PM 25.91 78.638 7.12 2.54 -5
12/28/2022 6:15:00 PM 25.91 78.638 7.12 2.53 -5
12/28/2022 6:30:00 PM 26.03 78.854 7.12 2.55 -5
12/28/2022 6:45:00 PM 26.03 78.854 7.12 2.54 -5
12/28/2022 7:00:00 PM 26.03 78.854 7.11 2.47 -5
12/28/2022 7:15:00 PM 26.03 78.854 7.11 2.35 -5
12/28/2022 7:30:00 PM 26.03 78.854 7.1 2.32 -5
12/28/2022 7:45:00 PM 26.14 79.052 7.1 2.18 -5
12/28/2022 8:00:00 PM 26.14 79.052 7.1 2.15 -5
12/28/2022 8:15:00 PM 26.03 78.854 7.09 2.15 -5
12/28/2022 8:30:00 PM 26.03 78.854 7.09 2.18 -5
12/28/2022 8:45:00 PM 26.03 78.854 7.08 2.16 -5
12/28/2022 9:00:00 PM 26.03 78.854 7.08 2.17 -5
12/28/2022 9:15:00 PM 26.03 78.854 7.07 2.15 -5
12/28/2022 9:30:00 PM 25.91 78.638 7.07 2.2 -5
12/28/2022 9:45:00 PM 25.91 78.638 7.06 2.22 -5
12/28/2022 10:00:00 PM 25.91 78.638 7.06 2.24 -5
12/28/2022 10:15:00 PM 25.91 78.638 7.05 2.35 -5
12/28/2022 10:30:00 PM 25.77 78.386 7.04 2.44 -5
12/28/2022 10:45:00 PM 25.77 78.386 7.04 2.6 -5
12/28/2022 11:00:00 PM 25.77 78.386 7.03 2.78 -5
12/28/2022 11:15:00 PM 25.77 78.386 7.03 3.09 -5
12/28/2022 11:30:00 PM 25.77 78.386 7.02 3.55 -5
12/28/2022 11:45:00 PM 25.77 78.386 7.01 3.93 -5
12/29/2022 12:00:00 AM 25.77 78.386 7.01 4.31 -5
12/29/2022 12:15:00 AM 25.66 78.188 7.01 4.69 -5
12/29/2022 12:30:00 AM 25.66 78.188 7.01 5.11 -5
12/29/2022 12:45:00 AM 25.66 78.188 7 5.55 -5
12/29/2022 1:00:00 AM 25.66 78.188 7.01 5.93 -5
12/29/2022 1:15:00 AM 25.66 78.188 7.01 6.27 -5
12/29/2022 1:30:00 AM 25.66 78.188 7.02 6.58 -5
12/29/2022 1:45:00 AM 25.66 78.188 7.02 7.02 -5
12/29/2022 2:00:00 AM 25.66 78.188 7.02 7.44 -5
12/29/2022 2:15:00 AM 25.66 78.188 7.02 7.8 -5
12/29/2022 2:30:00 AM 25.66 78.188 7.02 8.08 -5
12/29/2022 2:45:00 AM 25.66 78.188 7.02 8.47 -5
12/29/2022 3:00:00 AM 25.53 77.954 7.02 8.8 -5
12/29/2022 3:15:00 AM 25.53 77.954 7.02 9.19 -5
12/29/2022 3:30:00 AM 25.53 77.954 7.02 9.65 -5
12/29/2022 3:45:00 AM 25.53 77.954 7.03 10.43 -5
12/29/2022 4:00:00 AM 25.53 77.954 7.03 11.55 -5
12/29/2022 4:15:00 AM 25.53 77.954 7.03 13.51 -5
12/29/2022 4:30:00 AM 25.53 77.954 7.03 14.83 -5
12/29/2022 4:45:00 AM 25.53 77.954 7.03 15.54 -5
12/29/2022 5:00:00 AM 25.4 77.72 7.03 16.2 -5
12/29/2022 5:15:00 AM 25.4 77.72 7.03 17.29 -5
12/29/2022 5:30:00 AM 25.4 77.72 7.04 18.85 -5
12/29/2022 5:45:00 AM 25.4 77.72 7.03 20.25 -5
12/29/2022 6:00:00 AM 25.4 77.72 7.04 21.2 -5
12/29/2022 6:15:00 AM 25.29 77.522 7.04 21.59 -5
12/29/2022 6:30:00 AM 24.54 76.172 6.98 21.75 -5
12/29/2022 6:45:00 AM 24.42 75.956 6.94 21.84 -5
12/29/2022 7:00:00 AM 24.42 75.956 7.02 21.89 -5
12/29/2022 7:15:00 AM 24.54 76.172 7.03 21.95 -5
12/29/2022 7:30:00 AM 24.66 76.388 7.01 21.99 -5
12/29/2022 7:45:00 AM 24.79 76.622 7 22.01 -5
12/29/2022 8:00:00 AM 24.8 76.64 6.99 22.06 -5
12/29/2022 8:15:00 AM 24.9 76.82 6.98 22.1 -5
12/29/2022 8:30:00 AM 24.91 76.838 6.96 22.12 -5
12/29/2022 8:45:00 AM 24.9 76.82 6.93 22.14 -5
12/29/2022 9:00:00 AM 24.79 76.622 6.92 22.16 -5
12/29/2022 9:15:00 AM 24.79 76.622 6.91 22.19 -5
12/29/2022 9:30:00 AM 24.66 76.388 6.9 22.22 -5
12/29/2022 9:45:00 AM 24.66 76.388 6.89 22.23 -5
12/29/2022 10:00:00 AM 24.54 76.172 6.9 22.25 -5
12/29/2022 10:15:00 AM 24.42 75.956 6.91 22.25 -5
12/29/2022 10:30:00 AM 24.28 75.704 6.93 22.23 -5
12/29/2022 10:45:00 AM 24.28 75.704 6.93 22.25 -5
12/29/2022 11:00:00 AM 24.28 75.704 6.93 22.27 -5
12/29/2022 11:15:00 AM 24.17 75.506 6.92 22.26 -5
12/29/2022 11:30:00 AM 24.16 75.488 6.92 22.27 -5
12/29/2022 11:45:00 AM 24.16 75.488 6.92 22.28 -5
12/29/2022 12:00:00 PM 24.16 75.488 6.91 22.29 -5
12/29/2022 12:15:00 PM 24.16 75.488 6.91 22.31 -5
12/29/2022 12:30:00 PM 24.16 75.488 6.91 22.3 -5
12/29/2022 12:45:00 PM 24.17 75.506 6.9 22.31 -5
12/29/2022 1:00:00 PM 24.28 75.704 6.89 22.31 -5
12/29/2022 1:15:00 PM 24.28 75.704 6.89 22.31 -5
12/29/2022 1:30:00 PM 24.16 75.488 6.88 22.32 -5
12/29/2022 1:45:00 PM 24.28 75.704 6.88 22.35 -5
12/29/2022 2:00:00 PM 22.78 73.004 7.49 45.54 -5
12/29/2022 2:15:00 PM 17.66 63.788 5.85 7.62 -5
12/29/2022 2:30:00 PM 15.28 59.504 6.12 68.91 -5
12/29/2022 2:45:00 PM 16.17 61.106 6.25 1.14 -5
12/29/2022 3:00:00 PM 14.9 58.82 6.43 2.17 -5
12/29/2022 3:15:00 PM 15.04 59.072 6.51 3.77 -5
12/29/2022 3:30:00 PM 15.04 59.072 6.57 6.11 -5
12/29/2022 3:45:00 PM 15.15 59.27 6.62 8.21 -5
12/29/2022 4:00:00 PM 15.15 59.27 6.66 9.98 -5
12/29/2022 4:15:00 PM 15.28 59.504 6.68 11 -5
12/29/2022 4:30:00 PM 15.28 59.504 6.69 11.58 -5
12/29/2022 4:45:00 PM 15.28 59.504 6.67 11.94 -5
12/29/2022 5:00:00 PM 15.28 59.504 6.63 12.17 -5
12/29/2022 5:15:00 PM 15.28 59.504 6.64 12.42 -5
12/29/2022 5:30:00 PM 15.28 59.504 6.63 12.69 -5
12/29/2022 5:45:00 PM 15.15 59.27 6.63 12.89 -5
12/29/2022 6:00:00 PM 15.28 59.504 6.64 13.14 -5
12/29/2022 6:15:00 PM 15.41 59.738 6.66 13.36 -5
12/29/2022 6:30:00 PM 15.42 59.756 6.65 13.73 -5
12/29/2022 6:45:00 PM 15.29 59.522 6.67 14.07 -5
12/29/2022 7:00:00 PM 15.15 59.27 6.64 14.42 -5
12/29/2022 7:15:00 PM 15.16 59.288 6.67 14.77 -5
12/29/2022 7:30:00 PM 15.16 59.288 6.7 15.09 -5
12/29/2022 7:45:00 PM 15.15 59.27 6.71 15.35 -5
12/29/2022 8:00:00 PM 15.15 59.27 6.73 15.47 -5
12/29/2022 8:15:00 PM 15.16 59.288 6.71 15.59 -5
12/29/2022 8:30:00 PM 15.15 59.27 6.72 15.65 -5
12/29/2022 8:45:00 PM 15.41 59.738 6.72 15.69 -5
12/29/2022 9:00:00 PM 15.41 59.738 6.74 15.72 -5
12/29/2022 9:15:00 PM 15.41 59.738 6.72 15.74 -5
12/29/2022 9:30:00 PM 15.16 59.288 6.71 15.75 -5
12/29/2022 9:45:00 PM 15.16 59.288 6.65 15.77 -5
12/29/2022 10:00:00 PM 15.04 59.072 6.68 15.78 -5
12/29/2022 10:15:00 PM 15.04 59.072 6.69 15.76 -5
12/29/2022 10:30:00 PM 15.15 59.27 6.68 15.8 -5
12/29/2022 10:45:00 PM 15.15 59.27 6.68 15.81 -5
12/29/2022 11:00:00 PM 15.04 59.072 6.66 15.81 -5
12/29/2022 11:15:00 PM 14.91 58.838 6.66 15.82 -5
12/29/2022 11:30:00 PM 14.91 58.838 6.68 15.78 -5
12/29/2022 11:45:00 PM 15.28 59.504 6.72 15.78 -5
12/30/2022 12:00:00 AM 15.28 59.504 6.74 15.78 -5
12/30/2022 12:15:00 AM 15.28 59.504 6.74 15.77 -5
12/30/2022 12:30:00 AM 14.91 58.838 6.72 15.79 -5
12/30/2022 12:45:00 AM 14.91 58.838 6.73 15.79 -5
12/30/2022 1:00:00 AM 15.04 59.072 6.75 15.8 -5
12/30/2022 1:15:00 AM 22.28 72.104 7.16 15.81 -5
12/30/2022 1:30:00 AM 23.89 75.002 7.1 15.8 -5
12/30/2022 1:45:00 AM 24.66 76.388 7.24 15.82 -5
12/30/2022 2:00:00 AM 25.03 77.054 7.2 15.8 -5
12/30/2022 2:15:00 AM 25.29 77.522 7.16 15.82 -5
12/30/2022 2:30:00 AM 25.4 77.72 7.14 15.82 -5
12/30/2022 2:45:00 AM 25.4 77.72 7.08 15.82 -5
12/30/2022 3:00:00 AM 25.53 77.954 7.04 15.83 -5
12/30/2022 3:15:00 AM 25.53 77.954 7.02 15.83 -5
12/30/2022 3:30:00 AM 25.53 77.954 6.98 15.82 -5
12/30/2022 3:45:00 AM 25.66 78.188 6.97 15.81 -5
12/30/2022 4:00:00 AM 25.66 78.188 6.96 15.82 -5
12/30/2022 4:15:00 AM 25.66 78.188 6.95 15.84 -5
12/30/2022 4:30:00 AM 25.66 78.188 6.94 15.86 -5
12/30/2022 4:45:00 AM 25.66 78.188 6.93 15.82 -5
12/30/2022 5:00:00 AM 25.66 78.188 6.92 15.84 -5
12/30/2022 5:15:00 AM 25.66 78.188 6.92 15.86 -5
12/30/2022 5:30:00 AM 25.66 78.188 6.93 15.85 -5
12/30/2022 5:45:00 AM 25.66 78.188 6.94 15.86 -5
12/30/2022 6:00:00 AM 25.77 78.386 6.95 15.85 -5
12/30/2022 6:15:00 AM 25.77 78.386 6.95 15.85 -5
12/30/2022 6:30:00 AM 25.77 78.386 6.97 15.86 -5
12/30/2022 6:45:00 AM 25.77 78.386 6.97 15.86 -5
12/30/2022 7:00:00 AM 25.77 78.386 6.99 15.85 -5
12/30/2022 7:15:00 AM 8.67 47.606 7.51 50.38 -5
12/30/2022 7:30:00 AM 8.13 46.634 7.21 50.59 -5
12/30/2022 7:45:00 AM 7.76 45.968 7.35 50.29 -5
12/30/2022 8:00:00 AM 7.89 46.202 7.32 50.3 -5
12/30/2022 8:15:00 AM 7.76 45.968 7.32 51.46 -5
12/30/2022 8:30:00 AM 7.89 46.202 7.33 50.96 -5
12/30/2022 8:45:00 AM 7.76 45.968 7.32 50.37 -5
12/30/2022 9:00:00 AM 7.76 45.968 7.3 50.04 -5
12/30/2022 9:15:00 AM 7.89 46.202 7.3 49.39 -5
12/30/2022 9:30:00 AM 7.76 45.968 7.3 48.9 -5
12/30/2022 9:45:00 AM 7.76 45.968 7.29 48.14 -5
12/30/2022 10:00:00 AM 8.01 46.418 7.3 47.65 -5
12/30/2022 10:15:00 AM 7.89 46.202 7.28 47.36 -5
12/30/2022 10:30:00 AM 8.01 46.418 7.28 46.54 -5
12/30/2022 10:45:00 AM 7.89 46.202 7.27 45.14 -5
12/30/2022 11:00:00 AM 7.89 46.202 7.28 44.48 -5
12/30/2022 11:15:00 AM 7.89 46.202 7.28 44.04 -5
12/30/2022 11:30:00 AM 7.89 46.202 7.27 43.55 -5
12/30/2022 11:45:00 AM 7.76 45.968 7.28 43.63 -5
12/30/2022 12:00:00 PM 7.89 46.202 7.26 42.51 -5
12/30/2022 12:15:00 PM 7.89 46.202 7.26 42.36 -5
12/30/2022 12:30:00 PM 7.89 46.202 7.26 42.36 -5
12/30/2022 12:45:00 PM 7.89 46.202 7.27 42.33 -5
12/30/2022 1:00:00 PM 8.01 46.418 7.26 43.11 -5
12/30/2022 1:15:00 PM 7.89 46.202 7.26 42.99 -5
12/30/2022 1:30:00 PM 7.89 46.202 7.28 43.6 -5
12/30/2022 1:45:00 PM 7.76 45.968 7.26 42.21 -5
12/30/2022 2:00:00 PM 7.89 46.202 7.24 41.67 -5
12/30/2022 2:15:00 PM 7.76 45.968 7.24 41.9 -5
12/30/2022 2:30:00 PM 7.89 46.202 7.22 40.32 -5
12/30/2022 2:45:00 PM 7.89 46.202 7.2 40 -5
12/30/2022 3:00:00 PM 7.89 46.202 7.19 38.45 -5
12/30/2022 3:15:00 PM 7.89 46.202 7.18 38.71 -5
12/30/2022 3:30:00 PM 8.01 46.418 7.18 39.03 -5
12/30/2022 3:45:00 PM 8.01 46.418 7.19 37.97 -5
12/30/2022 4:00:00 PM 8.01 46.418 7.21 37.37 -5
12/30/2022 4:15:00 PM 8.01 46.418 7.19 36.87 -5
12/30/2022 4:30:00 PM 8.01 46.418 7.2 37.6 -5
12/30/2022 4:45:00 PM 8.09 46.562 7.22 37.14 -5
12/30/2022 5:00:00 PM 8.01 46.418 7.19 36.78 -5
12/30/2022 5:15:00 PM 8.13 46.634 7.19 36.23 -5
12/30/2022 5:30:00 PM 8.12 46.616 7.2 37.19 -5
12/30/2022 5:45:00 PM 8.01 46.418 7.2 36.72 -5
12/30/2022 6:00:00 PM 8.01 46.418 7.18 36.87 -5
12/30/2022 6:15:00 PM 8.13 46.634 7.18 36.73 -5
12/30/2022 6:30:00 PM 8.27 46.886 7.17 36.76 -5
12/30/2022 6:45:00 PM 8.01 46.418 7.17 36.81 -5
12/30/2022 7:00:00 PM 8.12 46.616 7.17 35.75 -5
12/30/2022 7:15:00 PM 8.01 46.418 7.17 35.31 -5
12/30/2022 7:30:00 PM 8.13 46.634 7.17 35 -5
12/30/2022 7:45:00 PM 8.01 46.418 7.17 34.23 -5
12/30/2022 8:00:00 PM 8.01 46.418 7.17 33.37 -5
12/30/2022 8:15:00 PM 8.41 47.138 7.18 32.67 -5
12/30/2022 8:30:00 PM 8.12 46.616 7.18 32.22 -5
12/30/2022 8:45:00 PM 8.13 46.634 7.18 31.36 -5
12/30/2022 9:00:00 PM 8.13 46.634 7.16 31.3 -5
12/30/2022 9:15:00 PM 8.13 46.634 7.15 30.78 -5
12/30/2022 9:30:00 PM 8.01 46.418 7.18 30.52 -5
12/30/2022 9:45:00 PM 8.13 46.634 7.18 30.24 -5
12/30/2022 10:00:00 PM 8.08 46.544 7.2 30.35 -5
12/30/2022 10:15:00 PM 8.01 46.418 7.2 29.89 -5
12/30/2022 10:30:00 PM 8.13 46.634 7.23 29.91 -5
12/30/2022 10:45:00 PM 8.01 46.418 7.24 29.67 -5
12/30/2022 11:00:00 PM 8.01 46.418 7.21 29.53 -5
12/30/2022 11:15:00 PM 8.13 46.634 7.21 28.92 -5
12/30/2022 11:30:00 PM 8.13 46.634 7.21 29.8 -5
12/30/2022 11:45:00 PM 8.01 46.418 7.21 28.93 -5
12/31/2022 12:00:00 AM 8.01 46.418 7.21 29.31 -5
12/31/2022 12:15:00 AM 8.27 46.886 7.21 29.42 -5
12/31/2022 12:30:00 AM 8.12 46.616 7.19 29.75 -5
12/31/2022 12:45:00 AM 8.12 46.616 7.18 29.41 -5
12/31/2022 1:00:00 AM 8.01 46.418 7.19 29.56 -5
12/31/2022 1:15:00 AM 8.01 46.418 7.22 28.79 -5
12/31/2022 1:30:00 AM 7.89 46.202 7.18 28.95 -5
12/31/2022 1:45:00 AM 7.89 46.202 7.19 29.07 -5
12/31/2022 2:00:00 AM 8.01 46.418 7.19 29.03 -5
12/31/2022 2:15:00 AM 7.89 46.202 7.18 29.21 -5
12/31/2022 2:30:00 AM 7.89 46.202 7.17 29.62 -5
12/31/2022 2:45:00 AM 7.76 45.968 7.18 29.35 -5
12/31/2022 3:00:00 AM 7.76 45.968 7.18 29.5 -5
12/31/2022 3:15:00 AM 7.89 46.202 7.18 29.59 -5
12/31/2022 3:30:00 AM 7.89 46.202 7.18 29.16 -5
12/31/2022 3:45:00 AM 7.89 46.202 7.19 29.58 -5
12/31/2022 4:00:00 AM 8.01 46.418 7.19 29.54 -5
12/31/2022 4:15:00 AM 7.89 46.202 7.17 29.66 -5
12/31/2022 4:30:00 AM 7.65 45.77 7.19 29.93 -5
12/31/2022 4:45:00 AM 7.65 45.77 7.2 30.11 -5
12/31/2022 5:00:00 AM 7.76 45.968 7.2 30.4 -5
12/31/2022 5:15:00 AM 7.89 46.202 7.18 30.13 -5
12/31/2022 5:30:00 AM 7.65 45.77 7.19 30.32 -5
12/31/2022 5:45:00 AM 7.65 45.77 7.2 26.16 -5
12/31/2022 6:00:00 AM 7.65 45.77 7.21 26.79 -5
12/31/2022 6:15:00 AM 7.65 45.77 7.22 27.33 -5
12/31/2022 6:30:00 AM 7.76 45.968 7.23 27.38 -5
12/31/2022 6:45:00 AM 7.53 45.554 7.24 27.81 -5
12/31/2022 7:00:00 AM 7.65 45.77 7.22 27.73 -5
12/31/2022 7:15:00 AM 7.53 45.554 7.21 28.4 -5
12/31/2022 7:30:00 AM 7.53 45.554 7.22 29.36 -5
12/31/2022 7:45:00 AM 7.4 45.32 7.2 29.76 -5
12/31/2022 8:00:00 AM 7.53 45.554 7.18 30.77 -5
12/31/2022 8:15:00 AM 7.65 45.77 7.18 31.75 -5
12/31/2022 8:30:00 AM 7.4 45.32 7.18 31.88 -5
12/31/2022 8:45:00 AM 7.53 45.554 7.19 32.17 -5
12/31/2022 9:00:00 AM 7.65 45.77 7.19 32.29 -5
12/31/2022 9:15:00 AM 7.53 45.554 7.2 32.06 -5
12/31/2022 9:30:00 AM 7.4 45.32 7.19 31.78 -5
12/31/2022 9:45:00 AM 7.65 45.77 7.2 31.53 -5
12/31/2022 10:00:00 AM 7.4 45.32 7.19 31.55 -5
12/31/2022 10:15:00 AM 7.65 45.77 7.2 31.47 -5
12/31/2022 10:30:00 AM 7.53 45.554 7.17 31.74 -5
12/31/2022 10:45:00 AM 7.4 45.32 7.19 32.34 -5
12/31/2022 11:00:00 AM 7.53 45.554 7.18 32.9 -5
12/31/2022 11:15:00 AM 7.53 45.554 7.21 33.17 -5
12/31/2022 11:30:00 AM 7.53 45.554 7.2 33.43 -5
12/31/2022 11:45:00 AM 7.53 45.554 7.2 34.54 -5
12/31/2022 12:00:00 PM 7.16 44.888 7.19 35.82 -5
12/31/2022 12:15:00 PM 7.53 45.554 7.18 37.35 -5
12/31/2022 12:30:00 PM 7.89 46.202 7.19 38.56 -5
12/31/2022 12:45:00 PM 7.89 46.202 7.19 39.89 -5
12/31/2022 1:00:00 PM 7.89 46.202 7.19 41.08 -5
12/31/2022 1:15:00 PM 7.65 45.77 7.19 42.22 -5
12/31/2022 1:30:00 PM 7.53 45.554 7.19 43.52 -5
12/31/2022 1:45:00 PM 7.4 45.32 7.19 44.49 -5
12/31/2022 2:00:00 PM 7.4 45.32 7.2 45.23 -5
12/31/2022 2:15:00 PM 7.53 45.554 7.19 46.19 -5
12/31/2022 2:30:00 PM 7.53 45.554 7.19 46.21 -5
12/31/2022 2:45:00 PM 7.27 45.086 7.21 45.72 -5
12/31/2022 3:00:00 PM 7.27 45.086 7.2 46.18 -5
12/31/2022 3:15:00 PM 7.4 45.32 7.2 45.6 -5
12/31/2022 3:30:00 PM 7.4 45.32 7.19 45.72 -5
12/31/2022 3:45:00 PM 7.27 45.086 7.19 45.13 -5
12/31/2022 4:00:00 PM 7.27 45.086 7.19 44.75 -5
12/31/2022 4:15:00 PM 7.4 45.32 7.2 43.97 -5
12/31/2022 4:30:00 PM 7.53 45.554 7.2 43.21 -5
12/31/2022 4:45:00 PM 7.53 45.554 7.2 42.84 -5
12/31/2022 5:00:00 PM 7.53 45.554 7.21 42.31 -5
12/31/2022 5:15:00 PM 7.53 45.554 7.22 41.82 -5
12/31/2022 5:30:00 PM 7.53 45.554 7.22 40.91 -5
12/31/2022 5:45:00 PM 7.4 45.32 7.23 40.2 -5
12/31/2022 6:00:00 PM 7.4 45.32 7.22 39.91 -5
12/31/2022 6:15:00 PM 7.4 45.32 7.22 38.46 -5
12/31/2022 6:30:00 PM 7.53 45.554 7.27 37.85 -5
12/31/2022 6:45:00 PM 7.53 45.554 7.33 36.51 -5
12/31/2022 7:00:00 PM 7.53 45.554 7.35 36.17 -5
12/31/2022 7:15:00 PM 7.4 45.32 7.36 36.2 -5
12/31/2022 7:30:00 PM 7.02 44.636 7.37 34.51 -5
12/31/2022 7:45:00 PM 7.27 45.086 7.34 33.14 -5
12/31/2022 8:00:00 PM 7.53 45.554 7.37 32.86 -5
12/31/2022 8:15:00 PM 7.53 45.554 7.41 32.14 -5
12/31/2022 8:30:00 PM 7.63 45.734 7.41 31.4 -5
12/31/2022 8:45:00 PM 7.76 45.968 7.41 30.75 -5
12/31/2022 9:00:00 PM 7.53 45.554 7.41 30.25 -5
12/31/2022 9:15:00 PM 7.53 45.554 7.41 29.47 -5
12/31/2022 9:30:00 PM 7.53 45.554 7.41 28.5 -5
12/31/2022 9:45:00 PM 7.53 45.554 7.41 28.6 -5
12/31/2022 10:00:00 PM 7.53 45.554 7.41 27.93 -5
12/31/2022 10:15:00 PM 7.53 45.554 7.41 27.51 -5
12/31/2022 10:30:00 PM 7.4 45.32 7.41 26.73 -5
12/31/2022 10:45:00 PM 7.65 45.77 7.41 26.44 -5
12/31/2022 11:00:00 PM 7.53 45.554 7.4 26.12 -5
12/31/2022 11:15:00 PM 7.53 45.554 7.41 26 -5
12/31/2022 11:30:00 PM 7.53 45.554 7.41 25.33 -5
12/31/2022 11:45:00 PM 7.53 45.554 7.41 25.28 -5
1/1/2023 12:00:00 AM 7.53 45.554 7.41 25.7 -5
1/1/2023 12:15:00 AM 7.65 45.77 7.42 25.09 -5
1/1/2023 12:30:00 AM 7.4 45.32 7.41 24.8 -5
1/1/2023 12:45:00 AM 7.4 45.32 7.43 24.28 -5
1/1/2023 1:00:00 AM 7.65 45.77 7.43 24.24 -5
1/1/2023 1:15:00 AM 7.4 45.32 7.43 24.27 -5
1/1/2023 1:30:00 AM 7.65 45.77 7.43 24.05 -5
1/1/2023 1:45:00 AM 7.65 45.77 7.43 23.92 -5
1/1/2023 2:00:00 AM 7.65 45.77 7.44 23.87 -5
1/1/2023 2:15:00 AM 7.65 45.77 7.44 23.71 -5
1/1/2023 2:30:00 AM 7.53 45.554 7.43 23.31 -5
1/1/2023 2:45:00 AM 7.53 45.554 7.45 23.16 -5
1/1/2023 3:00:00 AM 7.65 45.77 7.44 23.19 -5
1/1/2023 3:15:00 AM 7.4 45.32 7.44 22.61 -5
1/1/2023 3:30:00 AM 7.4 45.32 7.44 22.8 -5
1/1/2023 3:45:00 AM 7.4 45.32 7.45 22.99 -5
1/1/2023 4:00:00 AM 7.27 45.086 7.39 23.03 -5
1/1/2023 4:15:00 AM 7.4 45.32 7.44 22.35 -5
1/1/2023 4:30:00 AM 7.16 44.888 7.44 22.33 -5
1/1/2023 4:45:00 AM 7.16 44.888 7.45 22.33 -5
1/1/2023 5:00:00 AM 7.16 44.888 7.45 22.1 -5
1/1/2023 5:15:00 AM 7.03 44.654 7.45 22.11 -5
1/1/2023 5:30:00 AM 7.03 44.654 7.44 22.08 -5
1/1/2023 5:45:00 AM 6.79 44.222 7.43 18.37 -5
1/1/2023 6:00:00 AM 6.87 44.366 7.44 18.59 -5
1/1/2023 6:15:00 AM 6.9 44.42 7.45 18.46 -5
1/1/2023 6:30:00 AM 6.79 44.222 7.44 18.47 -5
1/1/2023 6:45:00 AM 7.02 44.636 7.44 18.05 -5
1/1/2023 7:00:00 AM 6.41 43.538 7.44 18.58 -5
1/1/2023 7:15:00 AM 6.53 43.754 7.43 18.86 -5
1/1/2023 7:30:00 AM 6.41 43.538 7.44 18.85 -5
1/1/2023 7:45:00 AM 6.9 44.42 7.45 18.84 -5
1/1/2023 8:00:00 AM 6.52 43.736 7.45 19.01 -5
1/1/2023 8:15:00 AM 6.79 44.222 7.46 19.13 -5
1/1/2023 8:30:00 AM 6.53 43.754 7.45 19.21 -5
1/1/2023 8:45:00 AM 7.76 45.968 7.5 19.57 -5
1/1/2023 9:00:00 AM 7.53 45.554 7.55 19.84 -5
1/1/2023 9:15:00 AM 8.12 46.616 7.57 19.87 -5
1/1/2023 9:30:00 AM 8.01 46.418 7.57 19.95 -5
1/1/2023 9:45:00 AM 7.89 46.202 7.57 19.85 -5
1/1/2023 10:00:00 AM 8.27 46.886 7.55 19.7 -5
1/1/2023 10:15:00 AM 8.01 46.418 7.56 19.91 -5
1/1/2023 10:30:00 AM 7.76 45.968 7.49 19.92 -5
1/1/2023 10:45:00 AM 8.01 46.418 7.55 20.63 -5
1/1/2023 11:00:00 AM 7.76 45.968 7.54 21.07 -5
1/1/2023 11:15:00 AM 7.89 46.202 7.54 21.48 -5
1/1/2023 11:30:00 AM 7.89 46.202 7.53 20.79 -5
1/1/2023 11:45:00 AM 8.01 46.418 7.54 21.48 -5
1/1/2023 12:00:00 PM 7.65 45.77 7.55 21.64 -5
1/1/2023 12:15:00 PM 8.66 47.588 7.55 22.23 -5
1/1/2023 12:30:00 PM 8.01 46.418 7.56 21.58 -5
1/1/2023 12:45:00 PM 8.01 46.418 7.57 21.36 -5
1/1/2023 1:00:00 PM 7.65 45.77 7.57 21.38 -5
1/1/2023 1:15:00 PM 7.66 45.788 7.57 21.08 -5
1/1/2023 1:30:00 PM 7.65 45.77 7.57 21.01 -5
1/1/2023 1:45:00 PM 7.89 46.202 7.46 21.18 -5
1/1/2023 2:00:00 PM 7.89 46.202 7.5 21.18 -5
1/1/2023 2:15:00 PM 8.27 46.886 7.56 20.81 -5
1/1/2023 2:30:00 PM 8.27 46.886 7.51 20.86 -5
1/1/2023 2:45:00 PM 7.76 45.968 7.48 20.53 -5
1/1/2023 3:00:00 PM 7.89 46.202 7.51 20.38 -5
1/1/2023 3:15:00 PM 7.53 45.554 7.54 20.08 -5
1/1/2023 3:30:00 PM 7.4 45.32 7.53 19.77 -5
1/1/2023 3:45:00 PM 7.89 46.202 7.53 19.79 -5
1/1/2023 4:00:00 PM 7.65 45.77 7.53 21.89 -5
1/1/2023 4:15:00 PM 7.65 45.77 7.55 20.68 -5
1/1/2023 4:30:00 PM 7.76 45.968 7.55 20.47 -5
1/1/2023 4:45:00 PM 7.65 45.77 7.48 20.37 -5
1/1/2023 5:00:00 PM 7.65 45.77 7.52 19.64 -5
1/1/2023 5:15:00 PM 7.65 45.77 7.56 19.4 -5
1/1/2023 5:30:00 PM 7.53 45.554 7.55 19.86 -5
1/1/2023 5:45:00 PM 7.16 44.888 7.54 19.79 -5
1/1/2023 6:00:00 PM 7.4 45.32 7.54 19.52 -5
1/1/2023 6:15:00 PM 7.4 45.32 7.53 19.61 -5
1/1/2023 6:30:00 PM 7.4 45.32 7.53 19.59 -5
1/1/2023 6:45:00 PM 7.4 45.32 7.49 19.88 -5
1/1/2023 7:00:00 PM 7.4 45.32 7.51 19.83 -5
1/1/2023 7:15:00 PM 6.9 44.42 7.55 20.23 -5
1/1/2023 7:30:00 PM 7.16 44.888 7.55 20.15 -5
1/1/2023 7:45:00 PM 7.53 45.554 7.56 20.16 -5
1/1/2023 8:00:00 PM 7.03 44.654 7.58 20.27 -5
1/1/2023 8:15:00 PM 7.27 45.086 7.58 20.58 -5
1/1/2023 8:30:00 PM 7.53 45.554 7.58 22.77 -5
1/1/2023 8:45:00 PM 7.65 45.77 7.56 21.29 -5
1/1/2023 9:00:00 PM 7.76 45.968 7.59 22.24 -5
1/1/2023 9:15:00 PM 7.65 45.77 7.49 21.56 -5
1/1/2023 9:30:00 PM 8.27 46.886 7.58 21.45 -5
1/1/2023 9:45:00 PM 8.78 47.804 7.58 21.33 -5
1/1/2023 10:00:00 PM 9.15 48.47 7.59 21.39 -5
1/1/2023 10:15:00 PM 9.15 48.47 7.6 21.83 -5
1/1/2023 10:30:00 PM 7.89 46.202 7.6 21.78 -5
1/1/2023 10:45:00 PM 7.27 45.086 7.59 21.74 -5
1/1/2023 11:00:00 PM 7.4 45.32 7.59 22.23 -5
1/1/2023 11:15:00 PM 7.53 45.554 7.58 22.54 -5
1/1/2023 11:30:00 PM 7.27 45.086 7.58 22.06 -5
1/1/2023 11:45:00 PM 7.27 45.086 7.58 22.16 -5
1/2/2023 12:00:00 AM 7.28 45.104 7.57 22.31 -5
1/2/2023 12:15:00 AM 7.4 45.32 7.56 23.26 -5
1/2/2023 12:30:00 AM 7.16 44.888 7.56 22.64 -5
1/2/2023 12:45:00 AM 7.27 45.086 7.56 22.41 -5
1/2/2023 1:00:00 AM 7.16 44.888 7.55 22.36 -5
1/2/2023 1:15:00 AM 7.53 45.554 7.54 22.39 -5
1/2/2023 1:30:00 AM 7.53 45.554 7.53 22.39 -5
1/2/2023 1:45:00 AM 7.89 46.202 7.53 22.47 -5
1/2/2023 2:00:00 AM 7.16 44.888 7.52 22.36 -5
1/2/2023 2:15:00 AM 6.79 44.222 7.51 22.26 -5
1/2/2023 2:30:00 AM 6.9 44.42 7.51 22.74 -5
1/2/2023 2:45:00 AM 6.79 44.222 7.5 22.57 -5
1/2/2023 3:00:00 AM 7.03 44.654 7.49 22.58 -5
1/2/2023 3:15:00 AM 7 44.6 7.48 22.69 -5
1/2/2023 3:30:00 AM 7.89 46.202 7.48 22.79 -5
1/2/2023 3:45:00 AM 9.15 48.47 7.46 22.66 -5
1/2/2023 4:00:00 AM 8.41 47.138 7.46 22.33 -5
1/2/2023 4:15:00 AM 8.9 48.02 7.45 23.56 -5
1/2/2023 4:30:00 AM 8.27 46.886 7.44 22.95 -5
1/2/2023 4:45:00 AM 8.27 46.886 7.43 22.89 -5
1/2/2023 5:00:00 AM 7.53 45.554 7.42 22.94 -5
1/2/2023 5:15:00 AM 7.4 45.32 7.41 23.13 -5
1/2/2023 5:30:00 AM 7.4 45.32 7.41 19.19 -5
1/2/2023 5:45:00 AM 7.4 45.32 7.4 19.77 -5
1/2/2023 6:00:00 AM 7.4 45.32 7.4 19.99 -5
1/2/2023 6:15:00 AM 7.53 45.554 7.39 20.5 -5
1/2/2023 6:30:00 AM 7.27 45.086 7.38 20.69 -5
1/2/2023 6:45:00 AM 7.16 44.888 7.38 20.5 -5
1/2/2023 7:00:00 AM 7.03 44.654 7.37 21.04 -5
1/2/2023 7:15:00 AM 7.4 45.32 7.36 21.62 -5
1/2/2023 7:30:00 AM 7.89 46.202 7.35 21.5 -5
1/2/2023 7:45:00 AM 7.53 45.554 7.35 21.74 -5
1/2/2023 8:00:00 AM 7.53 45.554 7.34 21.88 -5
1/2/2023 8:15:00 AM 7.53 45.554 7.34 22.4 -5
1/2/2023 8:30:00 AM 7.76 45.968 7.33 22.76 -5
1/2/2023 8:45:00 AM 7.65 45.77 7.33 22.54 -5
1/2/2023 9:00:00 AM 7.76 45.968 7.33 23.18 -5
1/2/2023 9:15:00 AM 7.76 45.968 7.32 23.55 -5
1/2/2023 9:30:00 AM 7.65 45.77 7.32 23.7 -5
1/2/2023 9:45:00 AM 7.65 45.77 7.31 23.24 -5
1/2/2023 10:00:00 AM 7.53 45.554 7.3 23.3 -5
1/2/2023 10:15:00 AM 7.53 45.554 7.29 23.72 -5
1/2/2023 10:30:00 AM 7.89 46.202 7.27 23.66 -5
1/2/2023 10:45:00 AM 7.4 45.32 7.25 23.27 -5
1/2/2023 11:00:00 AM 7.65 45.77 7.25 23.4 -5
1/2/2023 11:15:00 AM 7.27 45.086 7.26 24.17 -5
1/2/2023 11:30:00 AM 7.53 45.554 7.18 24.12 -5
1/2/2023 11:45:00 AM 7.4 45.32 7.19 24.55 -5
1/2/2023 12:00:00 PM 7.53 45.554 7.2 24.56 -5
1/2/2023 12:15:00 PM 7.53 45.554 7.23 24.82 -5
1/2/2023 12:30:00 PM 7.03 44.654 7.21 24.89 -5
1/2/2023 12:45:00 PM 7.16 44.888 7.2 25.14 -5
1/2/2023 1:00:00 PM 7.27 45.086 7.23 25.17 -5
1/2/2023 1:15:00 PM 7.65 45.77 7.26 26.85 -5
1/2/2023 1:30:00 PM 7.16 44.888 7.27 26.38 -5
1/2/2023 1:45:00 PM 7.4 45.32 7.27 27.1 -5
1/2/2023 2:00:00 PM 7.02 44.636 7.29 27.87 -5
1/2/2023 2:15:00 PM 7.03 44.654 7.31 27.57 -5
1/2/2023 2:30:00 PM 7.27 45.086 7.31 26.27 -5
1/2/2023 2:45:00 PM 7.4 45.32 7.31 26.56 -5
1/2/2023 3:00:00 PM 7.27 45.086 7.29 28.44 -5
1/2/2023 3:15:00 PM 7.53 45.554 7.3 27.85 -5
1/2/2023 3:30:00 PM 7.4 45.32 7.29 28.73 -5
1/2/2023 3:45:00 PM 7.02 44.636 7.28 29.62 -5
1/2/2023 4:00:00 PM 7.15 44.87 7.28 29.55 -5
1/2/2023 4:15:00 PM 7.16 44.888 7.27 28.78 -5
1/2/2023 4:30:00 PM 7.53 45.554 7.27 29.38 -5
1/2/2023 4:45:00 PM 7.4 45.32 7.25 28.37 -5
1/2/2023 5:00:00 PM 7.65 45.77 7.19 28.64 -5
1/2/2023 5:15:00 PM 7.65 45.77 7.21 30.51 -5
1/2/2023 5:30:00 PM 7.65 45.77 7.26 30.72 -5
1/2/2023 5:45:00 PM 7.65 45.77 7.27 30.12 -5
1/2/2023 6:00:00 PM 8.13 46.634 7.27 30.29 -5
1/2/2023 6:15:00 PM 9.65 49.37 7.29 31.08 -5
1/2/2023 6:30:00 PM 12.9 55.22 7.34 31.87 -5
1/2/2023 6:45:00 PM 13.67 56.606 7.45 31.49 -5
1/2/2023 7:00:00 PM 14.42 57.956 7.53 31.86 -5
1/2/2023 7:15:00 PM 14.42 57.956 7.46 26.94 -5
1/2/2023 7:30:00 PM 14.53 58.154 7.46 26.99 -5
1/2/2023 7:45:00 PM 15.16 59.288 7.49 27.64 -5
1/2/2023 8:00:00 PM 15.16 59.288 7.44 23.09 -5
1/2/2023 8:15:00 PM 15.92 60.656 7.55 19.79 -5
1/2/2023 8:30:00 PM 17.03 62.654 7.5 19.93 -5
1/2/2023 8:45:00 PM 16.78 62.204 7.53 17.45 -5
1/2/2023 9:00:00 PM 18.03 64.454 7.47 16.75 -5
1/2/2023 9:15:00 PM 18.03 64.454 7.43 15.97 -5
1/2/2023 9:30:00 PM 19.49 67.082 7.47 14.93 -5
1/2/2023 9:45:00 PM 20.41 68.738 7.41 16.37 -5
1/2/2023 10:00:00 PM 20.52 68.936 7.41 16.85 -5
1/2/2023 10:15:00 PM 19.78 67.604 7.37 16.83 -5
1/2/2023 10:30:00 PM 19.78 67.604 7.4 17.21 -5
1/2/2023 10:45:00 PM 20.91 69.638 7.47 17.19 -5
1/2/2023 11:00:00 PM 20.52 68.936 7.35 17.12 -5
1/2/2023 11:15:00 PM 21.16 70.088 7.48 18.06 -5
1/2/2023 11:30:00 PM 21.54 70.772 7.41 17.23 -5
1/2/2023 11:45:00 PM 20.04 68.07201 7.34 17.7 -5
1/3/2023 12:00:00 AM 20.91 69.638 7.39 17.77 -5
1/3/2023 12:15:00 AM 21.42 70.556 7.4 17.68 -5
1/3/2023 12:30:00 AM 21.91 71.438 7.4 17.39 -5
1/3/2023 12:45:00 AM 22.29 72.122 7.47 17.02 -5
1/3/2023 1:00:00 AM 20.79 69.422 7.44 17.5 -5
1/3/2023 1:15:00 AM 21.05 69.89 7.41 16.4 -5
1/3/2023 1:30:00 AM 21.78 71.204 7.52 17.3 -5
1/3/2023 1:45:00 AM 22.29 72.122 7.52 17.39 -5
1/3/2023 2:00:00 AM 22.29 72.122 7.49 16.92 -5
1/3/2023 2:15:00 AM 20.52 68.936 7.43 17.17 -5
1/3/2023 2:30:00 AM 21.54 70.772 7.52 16.88 -5
1/3/2023 2:45:00 AM 21.91 71.438 7.48 15.96 -5
1/3/2023 3:00:00 AM 21.91 71.438 7.4 15.65 -5
1/3/2023 3:15:00 AM 21.78 71.204 7.48 15.32 -5
1/3/2023 3:30:00 AM 20.91 69.638 7.41 15.06 -5
1/3/2023 3:45:00 AM 21.66 70.988 7.51 14.23 -5
1/3/2023 4:00:00 AM 22.29 72.122 7.5 13.91 -5
1/3/2023 4:15:00 AM 22.03 71.654 7.44 13.01 -5
1/3/2023 4:30:00 AM 22.03 71.654 7.38 12.51 -5
1/3/2023 4:45:00 AM 22.29 72.122 7.43 11.77 -5
1/3/2023 5:00:00 AM 22.29 72.122 7.32 11.03 -5
1/3/2023 5:15:00 AM 22.03 71.654 7.33 10.09 -5
1/3/2023 5:30:00 AM 20.91 69.638 7.4 9.56 -5
1/3/2023 5:45:00 AM 21.42 70.556 7.47 9.35 -5
1/3/2023 6:00:00 AM 22.29 72.122 7.48 9.06 -5
1/3/2023 6:15:00 AM 22.29 72.122 7.46 8.99 -5
1/3/2023 6:30:00 AM 22.92 73.256 7.49 3.29 -5
1/3/2023 6:45:00 AM 23.03 73.454 7.48 2.01 -5
1/3/2023 7:00:00 AM 23.28 73.904 7.48 2.84 -5
1/3/2023 7:15:00 AM 5.66 42.188 7.47 34.53 -5
1/3/2023 7:30:00 AM 5.66 42.188 7.5 34.68 -5
1/3/2023 7:45:00 AM 6.03 42.854 7.54 35.78 -5
1/3/2023 8:00:00 AM 6.27 43.286 7.54 37.98 -5
1/3/2023 8:15:00 AM 7.76 45.968 7.52 38.57 -5
1/3/2023 8:30:00 AM 9.04 48.272 7.54 38.91 -5
1/3/2023 8:45:00 AM 11.15 52.07 7.55 39.31 -5
1/3/2023 9:00:00 AM 11.15 52.07 7.54 39.66 -5
1/3/2023 9:15:00 AM 13.02 55.436 7.57 38.85 -5
1/3/2023 9:30:00 AM 13.92 57.056 7.59 38.87 -5
1/3/2023 9:45:00 AM 10.28 50.504 7.51 39.08 -5
1/3/2023 10:00:00 AM 10.27 50.486 7.55 39.19 -5
1/3/2023 10:15:00 AM 10.53 50.954 7.56 39.81 -5
1/3/2023 10:30:00 AM 9.91 49.838 7.56 40.53 -5
1/3/2023 10:45:00 AM 9.78 49.604 7.57 39.7 -5
1/3/2023 11:00:00 AM 9.41 48.938 7.54 40.3 -5
1/3/2023 11:15:00 AM 9.41 48.938 7.52 40.02 -5
1/3/2023 11:30:00 AM 12.53 54.554 7.52 38.93 -5
1/3/2023 11:45:00 AM 14.42 57.956 7.54 39.44 -5
1/3/2023 12:00:00 PM 14.68 58.424 7.57 40.37 -5
1/3/2023 12:15:00 PM 14.53 58.154 7.55 40.77 -5
1/3/2023 12:30:00 PM 14.91 58.838 7.56 41.86 -5
1/3/2023 12:45:00 PM 15.16 59.288 7.55 40.85 -5
1/3/2023 1:00:00 PM 15.16 59.288 7.53 42.01 -5
1/3/2023 1:15:00 PM 15.04 59.072 7.51 40.96 -5
1/3/2023 1:30:00 PM 14.53 58.154 7.48 39.76 -5
1/3/2023 1:45:00 PM 14.42 57.956 7.51 42.37 -5
1/3/2023 2:00:00 PM 14.91 58.838 7.52 31.83 -5
1/3/2023 2:15:00 PM 14.53 58.154 7.51 30.17 -5
1/3/2023 2:30:00 PM 14.53 58.154 7.5 27.91 -5
1/3/2023 2:45:00 PM 14.42 57.956 7.51 26.28 -5
1/3/2023 3:00:00 PM 14.53 58.154 7.51 26.45 -5
1/3/2023 3:15:00 PM 14.53 58.154 7.49 25.3 -5
1/3/2023 3:30:00 PM 14.68 58.424 7.51 24.88 -5
1/3/2023 3:45:00 PM 14.68 58.424 7.49 24.82 -5
1/3/2023 4:00:00 PM 14.79 58.622 7.47 24.22 -5
1/3/2023 4:15:00 PM 14.91 58.838 7.47 25.27 -5
1/3/2023 4:30:00 PM 15.04 59.072 7.47 24.56 -5
1/3/2023 4:45:00 PM 14.91 58.838 7.45 24.22 -5
1/3/2023 5:00:00 PM 14.91 58.838 7.44 23.49 -5
1/3/2023 5:15:00 PM 14.91 58.838 7.46 23.17 -5
1/3/2023 5:30:00 PM 14.91 58.838 7.44 22.69 -5
1/3/2023 5:45:00 PM 15.16 59.288 7.43 21.78 -5
1/3/2023 6:00:00 PM 15.79 60.422 7.43 21.94 -5
1/3/2023 6:15:00 PM 15.92 60.656 7.45 21.7 -5
1/3/2023 6:30:00 PM 16.03 60.854 7.41 21.5 -5
1/3/2023 6:45:00 PM 15.92 60.656 7.42 21.32 -5
1/3/2023 7:00:00 PM 15.92 60.656 7.44 21.2 -5
1/3/2023 7:15:00 PM 15.92 60.656 7.43 20.92 -5
1/3/2023 7:30:00 PM 15.84 60.512 7.46 20.97 -5
1/3/2023 7:45:00 PM 15.79 60.422 7.43 20.56 -5
1/3/2023 8:00:00 PM 15.92 60.656 7.46 20.54 -5
1/3/2023 8:15:00 PM 15.79 60.422 7.45 20.06 -5
1/3/2023 8:30:00 PM 16.03 60.854 7.44 19.68 -5
1/3/2023 8:45:00 PM 16.29 61.322 7.44 19.37 -5
1/3/2023 9:00:00 PM 16.29 61.322 7.45 20.09 -5
1/3/2023 9:15:00 PM 16.4 61.52 7.46 20.42 -5
1/3/2023 9:30:00 PM 15.54 59.972 7.44 19.95 -5
1/3/2023 9:45:00 PM 15.66 60.188 7.39 19.57 -5
1/3/2023 10:00:00 PM 16.29 61.322 7.43 20.57 -5
1/3/2023 10:15:00 PM 16.03 60.854 7.44 20.16 -5
1/3/2023 10:30:00 PM 16.4 61.52 7.42 19.8 -5
1/3/2023 10:45:00 PM 17.03 62.654 7.44 19.94 -5
1/3/2023 11:00:00 PM 15.54 59.972 7.38 19.91 -5
1/3/2023 11:15:00 PM 15.79 60.422 7.45 19.97 -5
1/3/2023 11:30:00 PM 16.29 61.322 7.44 19.74 -5
1/3/2023 11:45:00 PM 16.28 61.304 7.44 19.54 -5
1/4/2023 12:00:00 AM 16.55 61.79 7.43 19.45 -5
1/4/2023 12:15:00 AM 16.4 61.52 7.43 19.77 -5
1/4/2023 12:30:00 AM 18.15 64.67 7.44 18.32 -5
1/4/2023 12:45:00 AM 18.91 66.038 7.46 18.72 -5
1/4/2023 1:00:00 AM 16.29 61.322 7.35 18.5 -5
1/4/2023 1:15:00 AM 15.16 59.288 7.39 17.41 -5
1/4/2023 1:30:00 AM 15.66 60.188 7.43 17.44 -5
1/4/2023 1:45:00 AM 16.29 61.322 7.42 17.78 -5
1/4/2023 2:00:00 AM 16.4 61.52 7.44 15.12 -5
1/4/2023 2:15:00 AM 15.54 59.972 7.4 16.36 -5
1/4/2023 2:30:00 AM 15.66 60.188 7.39 14.54 -5
1/4/2023 2:45:00 AM 16.03 60.854 7.45 12.96 -5
1/4/2023 3:00:00 AM 16.29 61.322 7.44 13.13 -5
1/4/2023 3:15:00 AM 15.16 59.288 7.35 12.41 -5
1/4/2023 3:30:00 AM 15.66 60.188 7.41 11.3 -5
1/4/2023 3:45:00 AM 16.29 61.322 7.45 13.68 -5
1/4/2023 4:00:00 AM 16.66 61.988 7.44 13.34 -5
1/4/2023 4:15:00 AM 16.17 61.106 7.44 13.33 -5
1/4/2023 4:30:00 AM 15.79 60.422 7.44 12.83 -5
1/4/2023 4:45:00 AM 15.54 59.972 7.4 13.04 -5
1/4/2023 5:00:00 AM 16.4 61.52 7.45 12.64 -5
1/4/2023 5:15:00 AM 16.92 62.456 7.45 12.23 -5
1/4/2023 5:30:00 AM 17.03 62.654 7.44 12.55 -5
1/4/2023 5:45:00 AM 16.17 61.106 7.43 12.17 -5
1/4/2023 6:00:00 AM 15.79 60.422 7.38 12.37 -5
1/4/2023 6:15:00 AM 16.17 61.106 7.44 12.1 -5
1/4/2023 6:30:00 AM 16.92 62.456 7.43 12.02 -5
1/4/2023 6:45:00 AM 5.66 42.188 7.35 51.09 -5
1/4/2023 7:00:00 AM 5.52 41.936 7.41 51.44 -5
1/4/2023 7:15:00 AM 5.66 42.188 7.5 51.36 -5
1/4/2023 7:30:00 AM 5.28 41.504 7.48 51.58 -5
1/4/2023 7:45:00 AM 5.4 41.72 7.45 51.85 -5
1/4/2023 8:00:00 AM 5.28 41.504 7.48 50.37 -5
1/4/2023 8:15:00 AM 5.39 41.702 7.48 50.28 -5
1/4/2023 8:30:00 AM 5.39 41.702 7.48 51.42 -5
1/4/2023 8:45:00 AM 5.52 41.936 7.5 52.41 -5
1/4/2023 9:00:00 AM 5.52 41.936 7.53 52.7 -5
1/4/2023 9:15:00 AM 5.78 42.404 7.56 52.51 -5
1/4/2023 9:30:00 AM 5.66 42.188 7.57 52.69 -5
1/4/2023 9:45:00 AM 5.78 42.404 7.56 53.76 -5
1/4/2023 10:00:00 AM 5.66 42.188 7.54 54.62 -5
1/4/2023 10:15:00 AM 5.66 42.188 7.52 51.58 -5
1/4/2023 10:30:00 AM 5.78 42.404 7.51 51.74 -5
1/4/2023 10:45:00 AM 5.66 42.188 7.5 51.95 -5
1/4/2023 11:00:00 AM 5.78 42.404 7.49 51.69 -5
1/4/2023 11:15:00 AM 5.9 42.62 7.47 51.88 -5
1/4/2023 11:30:00 AM 5.9 42.62 7.45 50.71 -5
1/4/2023 11:45:00 AM 5.78 42.404 7.44 52.34 -5
1/4/2023 12:00:00 PM 5.78 42.404 7.43 50.86 -5
1/4/2023 12:15:00 PM 5.78 42.404 7.42 53.48 -5
1/4/2023 12:30:00 PM 6.15 43.07 7.41 52.67 -5
1/4/2023 12:45:00 PM 6.03 42.854 7.39 53.79 -5
1/4/2023 1:00:00 PM 5.78 42.404 7.38 53.87 -5
1/4/2023 1:15:00 PM 5.9 42.62 7.36 55.11 -5
1/4/2023 1:30:00 PM 5.9 42.62 7.34 55.12 -5
1/4/2023 1:45:00 PM 5.78 42.404 7.31 54.61 -5
1/4/2023 2:00:00 PM 6.03 42.854 7.31 54.5 -5
1/4/2023 2:15:00 PM 5.9 42.62 7.31 54.69 -5
1/4/2023 2:30:00 PM 5.9 42.62 7.31 51.08 -5
1/4/2023 2:45:00 PM 6.03 42.854 7.3 50.1 -5
1/4/2023 3:00:00 PM 6.03 42.854 7.26 52.03 -5
1/4/2023 3:15:00 PM 6.03 42.854 7.19 51.03 -5
1/4/2023 3:30:00 PM 6.03 42.854 7.17 53.84 -5
1/4/2023 3:45:00 PM 6.03 42.854 7.18 57.54 -5
1/4/2023 4:00:00 PM 6.03 42.854 7.21 60.65 -5
1/4/2023 4:15:00 PM 6.03 42.854 7.2 57.29 -5
1/4/2023 4:30:00 PM 6.03 42.854 7.29 56.88 -5
1/4/2023 4:45:00 PM 6.15 43.07 7.27 56.12 -5
1/4/2023 5:00:00 PM 6.03 42.854 7.26 56.25 -5
1/4/2023 5:15:00 PM 6.03 42.854 7.27 55.52 -5
1/4/2023 5:30:00 PM 6.27 43.286 7.27 55.93 -5
1/4/2023 5:45:00 PM 6.64 43.952 7.29 55.67 -5
1/4/2023 6:00:00 PM 7.16 44.888 7.3 56.82 -5
1/4/2023 6:15:00 PM 6.03 42.854 7.29 57.15 -5
1/4/2023 6:30:00 PM 6.27 43.286 7.29 56.07 -5
1/4/2023 6:45:00 PM 6.27 43.286 7.28 55.21 -5
1/4/2023 7:00:00 PM 6.27 43.286 7.28 54.85 -5
1/4/2023 7:15:00 PM 6.27 43.286 7.27 55.5 -5
1/4/2023 7:30:00 PM 6.15 43.07 7.26 54.96 -5
1/4/2023 7:45:00 PM 6.41 43.538 7.25 54.18 -5
1/4/2023 8:00:00 PM 6.41 43.538 7.26 53.61 -5
1/4/2023 8:15:00 PM 6.64 43.952 7.2 53.72 -5
1/4/2023 8:30:00 PM 6.64 43.952 7.22 53.62 -5
1/4/2023 8:45:00 PM 6.64 43.952 7.22 53.9 -5
1/4/2023 9:00:00 PM 7.16 44.888 7.21 53.75 -5
1/4/2023 9:15:00 PM 7.03 44.654 7.2 54.16 -5
1/4/2023 9:30:00 PM 6.79 44.222 7.16 53.59 -5
1/4/2023 9:45:00 PM 7.76 45.968 7.16 55.02 -5
1/4/2023 10:00:00 PM 7.03 44.654 7.19 53.68 -5
1/4/2023 10:15:00 PM 7.16 44.888 7.22 53.02 -5
1/4/2023 10:30:00 PM 7.16 44.888 7.24 51.45 -5
1/4/2023 10:45:00 PM 7.53 45.554 7.21 52.24 -5
1/4/2023 11:00:00 PM 7.4 45.32 7.28 51.93 -5
1/4/2023 11:15:00 PM 8.01 46.418 7.29 52.37 -5
1/4/2023 11:30:00 PM 8.52 47.336 7.29 51.12 -5
1/4/2023 11:45:00 PM 7.76 45.968 7.29 51.26 -5
1/5/2023 12:00:00 AM 7.89 46.202 7.31 50.82 -5
1/5/2023 12:15:00 AM 7.28 45.104 7.3 50.96 -5
1/5/2023 12:30:00 AM 8.27 46.886 7.3 50.47 -5
1/5/2023 12:45:00 AM 7.65 45.77 7.29 51.71 -5
1/5/2023 1:00:00 AM 8.78 47.804 7.28 51.55 -5
1/5/2023 1:15:00 AM 8.01 46.418 7.28 52.37 -5
1/5/2023 1:30:00 AM 5.78 42.404 7.28 52.42 -5
1/5/2023 1:45:00 AM 6.41 43.538 7.27 52.08 -5
1/5/2023 2:00:00 AM 6.64 43.952 7.26 49.6 -5
1/5/2023 2:15:00 AM 6.15 43.07 7.27 47.48 -5
1/5/2023 2:30:00 AM 6.15 43.07 7.17 46.51 -5
1/5/2023 2:45:00 AM 6.15 43.07 7.18 44.75 -5
1/5/2023 3:00:00 AM 6.15 43.07 7.14 12.18 -5
1/5/2023 3:15:00 AM 6.15 43.07 7.16 8.65 -5
1/5/2023 3:30:00 AM 6.15 43.07 7.23 8.56 -5
1/5/2023 3:45:00 AM 6.03 42.854 7.2 9.32 -5
1/5/2023 4:00:00 AM 6.15 43.07 7.2 7.33 -5
1/5/2023 4:15:00 AM 6.15 43.07 7.21 7.36 -5
1/5/2023 4:30:00 AM 6.03 42.854 7.2 6.51 -5
1/5/2023 4:45:00 AM 6.16 43.088 7.22 14.61 -5
1/5/2023 5:00:00 AM 6.03 42.854 7.24 27.68 -5
1/5/2023 5:15:00 AM 6.03 42.854 7.25 14.73 -5
1/5/2023 5:30:00 AM 6.15 43.07 7.25 15.99 -5
1/5/2023 5:45:00 AM 6.03 42.854 7.24 38.7 -5
1/5/2023 6:00:00 AM 6.03 42.854 7.24 41.8 -5
1/5/2023 6:15:00 AM 6.03 42.854 7.23 39.17 -5
1/5/2023 6:30:00 AM 6.15 43.07 7.21 49.47 -5
1/5/2023 6:45:00 AM 6.03 42.854 7.2 25.61 -5
1/5/2023 7:00:00 AM 6.15 43.07 7.2 23.01 -5
1/5/2023 7:15:00 AM 6.15 43.07 7.17 45.26 -5
1/5/2023 7:30:00 AM 6.15 43.07 7.38 45.63 -5
1/5/2023 7:45:00 AM 6.27 43.286 7.4 45.82 -5
1/5/2023 8:00:00 AM 6.03 42.854 7.4 44.96 -5
1/5/2023 8:15:00 AM 6.15 43.07 7.41 45.38 -5
1/5/2023 8:30:00 AM 6.41 43.538 7.41 46.79 -5
1/5/2023 8:45:00 AM 6.53 43.754 7.39 46.42 -5
1/5/2023 9:00:00 AM 6.53 43.754 7.39 46.27 -5
1/5/2023 9:15:00 AM 6.41 43.538 7.41 46.99 -5
1/5/2023 9:30:00 AM 6.53 43.754 7.43 47.45 -5
1/5/2023 9:45:00 AM 6.53 43.754 7.42 46.89 -5
1/5/2023 10:00:00 AM 6.41 43.538 7.4 46.28 -5
1/5/2023 10:15:00 AM 6.79 44.222 7.44 46.3 -5
1/5/2023 10:30:00 AM 7.16 44.888 7.43 46.15 -5
1/5/2023 10:45:00 AM 7.4 45.32 7.45 46.52 -5
1/5/2023 11:00:00 AM 7.28 45.104 7.5 43.16 -5
1/5/2023 11:15:00 AM 7.4 45.32 7.52 43.39 -5
1/5/2023 11:30:00 AM 7.65 45.77 7.51 43.48 -5
1/5/2023 11:45:00 AM 7.89 46.202 7.49 43.62 -5
1/5/2023 12:00:00 PM 7.4 45.32 7.49 43.62 -5
1/5/2023 12:15:00 PM 7.27 45.086 7.47 40.4 -5
1/5/2023 12:30:00 PM 7.4 45.32 7.46 31.39 -5
1/5/2023 12:45:00 PM 7.53 45.554 7.36 15.38 -5
1/5/2023 1:00:00 PM 6.9 44.42 7.42 9.75 -5
1/5/2023 1:15:00 PM 6.9 44.42 7.42 9.57 -5
1/5/2023 1:30:00 PM 6.9 44.42 7.46 8.76 -5
1/5/2023 1:45:00 PM 7.03 44.654 7.43 9.76 -5
1/5/2023 2:00:00 PM 7.16 44.888 7.4 9.99 -5
1/5/2023 2:15:00 PM 7.16 44.888 7.46 10.02 -5
1/5/2023 2:30:00 PM 7.16 44.888 7.44 9.5 -5
1/5/2023 2:45:00 PM 6.9 44.42 7.45 10.01 -5
1/5/2023 3:00:00 PM 6.64 43.952 7.44 9.69 -5
1/5/2023 3:15:00 PM 9.03 48.254 7.39 15.52 -5
1/5/2023 3:30:00 PM 11.89 53.402 7.44 11.52 -5
1/5/2023 3:45:00 PM 14.53 58.154 7.45 8.58 -5
1/5/2023 4:00:00 PM 15.29 59.522 7.47 8.84 -5
1/5/2023 4:15:00 PM 14.42 57.956 7.43 8.13 -5
1/5/2023 4:30:00 PM 15.42 59.756 7.43 8.02 -5
1/5/2023 4:45:00 PM 15.79 60.422 7.43 7.82 -5
1/5/2023 5:00:00 PM 16.03 60.854 7.43 8.34 -5
1/5/2023 5:15:00 PM 15.04 59.072 7.36 8.3 -5
1/5/2023 5:30:00 PM 15.54 59.972 7.39 7.94 -5
1/5/2023 5:45:00 PM 15.92 60.656 7.38 7.81 -5
1/5/2023 6:00:00 PM 15.92 60.656 7.35 7.64 -5
1/5/2023 6:15:00 PM 15.28 59.504 7.37 7.68 -5
1/5/2023 6:30:00 PM 15.16 59.288 7.36 7.92 -5
1/5/2023 6:45:00 PM 15.54 59.972 7.38 7.33 -5
1/5/2023 7:00:00 PM 15.79 60.422 7.38 7.48 -5
1/5/2023 7:15:00 PM 16.29 61.322 7.39 7.32 -5
1/5/2023 7:30:00 PM 14.91 58.838 7.32 7.59 -5
1/5/2023 7:45:00 PM 15.54 59.972 7.37 7.1 -5
1/5/2023 8:00:00 PM 15.92 60.656 7.39 7.04 -5
1/5/2023 8:15:00 PM 16.17 61.106 7.38 7.14 -5
1/5/2023 8:30:00 PM 15.04 59.072 7.31 6.72 -5
1/5/2023 8:45:00 PM 16.03 60.854 7.4 7.19 -5
1/5/2023 9:00:00 PM 16.55 61.79 7.4 6.63 -5
1/5/2023 9:15:00 PM 16.54 61.772 7.41 7.01 -5
1/5/2023 9:30:00 PM 15.54 59.972 7.3 6.45 -5
1/5/2023 9:45:00 PM 15.42 59.756 7.4 6.93 -5
1/5/2023 10:00:00 PM 15.42 59.756 7.38 7.38 -5
1/5/2023 10:15:00 PM 15.04 59.072 7.37 6.34 -5
1/5/2023 10:30:00 PM 15.04 59.072 7.33 6.32 -5
1/5/2023 10:45:00 PM 15.28 59.504 7.37 6.98 -5
1/5/2023 11:00:00 PM 15.54 59.972 7.36 6.51 -5
1/5/2023 11:15:00 PM 14.79 58.622 7.35 6.25 -5
1/5/2023 11:30:00 PM 15.04 59.072 7.33 6.61 -5
1/5/2023 11:45:00 PM 15.28 59.504 7.36 6.47 -5
1/6/2023 12:00:00 AM 15.41 59.738 7.35 6.88 -5
1/6/2023 12:15:00 AM 15.79 60.422 7.35 5.97 -5
1/6/2023 12:30:00 AM 15.05 59.09 7.28 6.26 -5
1/6/2023 12:45:00 AM 15.54 59.972 7.34 6.34 -5
1/6/2023 1:00:00 AM 15.79 60.422 7.34 6.08 -5
1/6/2023 1:15:00 AM 16.17 61.106 7.34 5.85 -5
1/6/2023 1:30:00 AM 16.17 61.106 7.33 6.27 -5
1/6/2023 1:45:00 AM 15.16 59.288 7.25 5.52 -5
1/6/2023 2:00:00 AM 15.66 60.188 7.28 5.67 -5
1/6/2023 2:15:00 AM 15.66 60.188 7.27 5.82 -5
1/6/2023 2:30:00 AM 15.79 60.422 7.3 5.71 -5
1/6/2023 2:45:00 AM 16.17 61.106 7.34 5.56 -5
1/6/2023 3:00:00 AM 16.24 61.232 7.34 5.57 -5
1/6/2023 3:15:00 AM 15.29 59.522 7.24 5.28 -5
1/6/2023 3:30:00 AM 15.66 60.188 7.34 5.33 -5
1/6/2023 3:45:00 AM 15.91 60.638 7.34 5.24 -5
1/6/2023 4:00:00 AM 16.54 61.772 7.35 5.37 -5
1/6/2023 4:15:00 AM 16.17 61.106 7.31 5.1 -5
1/6/2023 4:30:00 AM 15.41 59.738 7.24 5.25 -5
1/6/2023 4:45:00 AM 15.79 60.422 7.33 5.3 -5
1/6/2023 5:00:00 AM 16.03 60.854 7.33 5.65 -5
1/6/2023 5:15:00 AM 16.17 61.106 7.32 5 -5
1/6/2023 5:30:00 AM 16.28 61.304 7.31 4.79 -5
1/6/2023 5:45:00 AM 15.42 59.756 7.23 5.14 -5
1/6/2023 6:00:00 AM 15.79 60.422 7.29 5.27 -5
1/6/2023 6:15:00 AM 15.91 60.638 7.31 5.07 -5
1/6/2023 6:30:00 AM 16.03 60.854 7.3 4.5 -5
1/6/2023 6:45:00 AM 16.4 61.52 7.3 4.27 -5
1/6/2023 7:00:00 AM 16.4 61.52 7.3 4.07 -5
1/6/2023 7:15:00 AM 6.79 44.222 7.19 36.61 -5
1/6/2023 7:30:00 AM 6.64 43.952 7.27 36.87 -5
1/6/2023 7:45:00 AM 6.64 43.952 7.29 36.88 -5
1/6/2023 8:00:00 AM 6.64 43.952 7.31 37.04 -5
1/6/2023 8:15:00 AM 6.64 43.952 7.29 37.35 -5
1/6/2023 8:30:00 AM 6.53 43.754 7.33 37.22 -5
1/6/2023 8:45:00 AM 6.64 43.952 7.31 37.78 -5
1/6/2023 9:00:00 AM 6.53 43.754 7.31 41.76 -5
1/6/2023 9:15:00 AM 6.53 43.754 7.3 39.65 -5
1/6/2023 9:30:00 AM 6.53 43.754 7.31 39.31 -5
1/6/2023 9:45:00 AM 6.79 44.222 7.32 38.92 -5
1/6/2023 10:00:00 AM 6.64 43.952 7.32 37.42 -5
1/6/2023 10:15:00 AM 6.64 43.952 7.32 37.79 -5
1/6/2023 10:30:00 AM 6.79 44.222 7.3 38.14 -5
1/6/2023 10:45:00 AM 6.64 43.952 7.31 38.02 -5
1/6/2023 11:00:00 AM 6.79 44.222 7.28 38.32 -5
1/6/2023 11:15:00 AM 7.16 44.888 7.31 38.54 -5
1/6/2023 11:30:00 AM 7.65 45.77 7.32 38.16 -5
1/6/2023 11:45:00 AM 7.27 45.086 7.3 38.64 -5
1/6/2023 12:00:00 PM 7.53 45.554 7.28 38.88 -5
1/6/2023 12:15:00 PM 8.01 46.418 7.3 39.62 -5
1/6/2023 12:30:00 PM 7.65 45.77 7.28 39.8 -5
1/6/2023 12:45:00 PM 7.65 45.77 7.33 40.81 -5
1/6/2023 1:00:00 PM 7.53 45.554 7.31 40.4 -5
1/6/2023 1:15:00 PM 7.4 45.32 7.28 37.89 -5
1/6/2023 1:30:00 PM 8.13 46.634 7.28 37.71 -5
1/6/2023 1:45:00 PM 7.76 45.968 7.28 38.66 -5
1/6/2023 2:00:00 PM 7.53 45.554 7.28 38.85 -5
1/6/2023 2:15:00 PM 7.53 45.554 7.29 38.68 -5
1/6/2023 2:30:00 PM 8.41 47.138 7.27 37.05 -5
1/6/2023 2:45:00 PM 7.65 45.77 7.25 39.12 -5
1/6/2023 3:00:00 PM 7.53 45.554 7.29 38.66 -5
1/6/2023 3:15:00 PM 7.54 45.572 7.27 38.75 -5
1/6/2023 3:30:00 PM 7.65 45.77 7.25 38.15 -5
1/6/2023 3:45:00 PM 7.53 45.554 7.31 36.04 -5
1/6/2023 4:00:00 PM 7.64 45.752 7.28 34.83 -5
1/6/2023 4:15:00 PM 7.27 45.086 7.32 35.38 -5
1/6/2023 4:30:00 PM 7.65 45.77 7.31 34.67 -5
1/6/2023 4:45:00 PM 7.4 45.32 7.27 35.34 -5
1/6/2023 5:00:00 PM 7.76 45.968 7.27 35.01 -5
1/6/2023 5:15:00 PM 7.65 45.77 7.25 34.59 -5
1/6/2023 5:30:00 PM 7.65 45.77 7.31 35.27 -5
1/6/2023 5:45:00 PM 7.4 45.32 7.31 38.76 -5
1/6/2023 6:00:00 PM 7.16 44.888 7.3 37.54 -5
1/6/2023 6:15:00 PM 7.03 44.654 7.32 35.03 -5
1/6/2023 6:30:00 PM 7.76 45.968 7.31 26 -5
1/6/2023 6:45:00 PM 7.64 45.752 7.27 12.27 -5
1/6/2023 7:00:00 PM 8.01 46.418 7.31 10.11 -5
1/6/2023 7:15:00 PM 7.27 45.086 7.37 8.97 -5
1/6/2023 7:30:00 PM 7.02 44.636 7.37 8.23 -5
1/6/2023 7:45:00 PM 6.9 44.42 7.38 7.93 -5
1/6/2023 8:00:00 PM 7.27 45.086 7.4 7.46 -5
1/6/2023 8:15:00 PM 7.16 44.888 7.41 7.28 -5
1/6/2023 8:30:00 PM 6.9 44.42 7.3 6.79 -5
1/6/2023 8:45:00 PM 7.27 45.086 7.45 7.19 -5
1/6/2023 9:00:00 PM 7.4 45.32 7.49 7.04 -5
1/6/2023 9:15:00 PM 7.65 45.77 7.52 7.37 -5
1/6/2023 9:30:00 PM 6.27 43.286 7.51 7.44 -5
1/6/2023 9:45:00 PM 6.03 42.854 7.51 7.68 -5
1/6/2023 10:00:00 PM 7.16 44.888 7.5 9.44 -5
1/6/2023 10:15:00 PM 7.27 45.086 7.5 10.94 -5
1/6/2023 10:30:00 PM 7.4 45.32 7.48 11.1 -5
1/6/2023 10:45:00 PM 7.53 45.554 7.47 12.47 -5
1/6/2023 11:00:00 PM 7.27 45.086 7.45 10.79 -5
1/6/2023 11:15:00 PM 7.65 45.77 7.43 10.3 -5
1/6/2023 11:30:00 PM 7.27 45.086 7.42 9.78 -5
1/6/2023 11:45:00 PM 7.27 45.086 7.4 9.41 -5
1/7/2023 12:00:00 AM 7.16 44.888 7.38 10.4 -5
1/7/2023 12:15:00 AM 8.12 46.616 7.37 10.07 -5
1/7/2023 12:30:00 AM 7.53 45.554 7.36 10.64 -5
1/7/2023 12:45:00 AM 7.76 45.968 7.35 10.96 -5
1/7/2023 1:00:00 AM 7.53 45.554 7.33 9.81 -5
1/7/2023 1:15:00 AM 7.53 45.554 7.32 11.4 -5
1/7/2023 1:30:00 AM 7.4 45.32 7.3 8.76 -5
1/7/2023 1:45:00 AM 7.53 45.554 7.28 8.79 -5
1/7/2023 2:00:00 AM 7.4 45.32 7.26 8.69 -5
1/7/2023 2:15:00 AM 7.27 45.086 7.25 9.54 -5
1/7/2023 2:30:00 AM 7.16 44.888 7.24 9.37 -5
1/7/2023 2:45:00 AM 7.02 44.636 7.22 15.92 -5
1/7/2023 3:00:00 AM 7.02 44.636 7.21 12.34 -5
1/7/2023 3:15:00 AM 8.12 46.616 7.18 10.66 -5
1/7/2023 3:30:00 AM 7.65 45.77 7.17 9.46 -5
1/7/2023 3:45:00 AM 7.76 45.968 7.17 9.78 -5
1/7/2023 4:00:00 AM 8.27 46.886 7.15 10.96 -5
1/7/2023 4:15:00 AM 9.03 48.254 7.14 9.41 -5
1/7/2023 4:30:00 AM 8.78 47.804 7.13 8.3 -5
1/7/2023 4:45:00 AM 10.28 50.504 7.11 11.25 -5
1/7/2023 5:00:00 AM 9.03 48.254 7.1 8.99 -5
1/7/2023 5:15:00 AM 12.02 53.636 7.09 8.86 -5
1/7/2023 5:30:00 AM 11.3 52.34 7.09 8.83 -5
1/7/2023 5:45:00 AM 11.28 52.304 7.09 9.88 -5
1/7/2023 6:00:00 AM 9.28 48.704 7.09 8.96 -5
1/7/2023 6:15:00 AM 8.52 47.336 7.07 8.76 -5
1/7/2023 6:30:00 AM 7.65 45.77 7.06 9.26 -5
1/7/2023 6:45:00 AM 10.02 50.036 7.05 10.11 -5
1/7/2023 7:00:00 AM 9.53 49.154 7.03 8.98 -5
1/7/2023 7:15:00 AM 8.12 46.616 7.02 10.26 -5
1/7/2023 7:30:00 AM 9.03 48.254 7 9.02 -5
1/7/2023 7:45:00 AM 9.65 49.37 6.99 8.95 -5
1/7/2023 8:00:00 AM 9.53 49.154 6.98 8.7 -5
1/7/2023 8:15:00 AM 9.15 48.47 6.96 9.97 -5
1/7/2023 8:30:00 AM 9.04 48.272 6.95 8.51 -5
1/7/2023 8:45:00 AM 10.54 50.972 6.93 8.17 -5
1/7/2023 9:00:00 AM 11.02 51.836 6.93 8.08 -5
1/7/2023 9:15:00 AM 10.91 51.638 6.92 8.29 -5
1/7/2023 9:30:00 AM 11.02 51.836 6.91 7.83 -5
1/7/2023 9:45:00 AM 11.02 51.836 6.9 7.66 -5
1/7/2023 10:00:00 AM 10.65 51.17 6.89 6.26 -5
1/7/2023 10:15:00 AM 11.28 52.304 6.89 5.81 -5
1/7/2023 10:30:00 AM 12.15 53.87 6.88 5.63 -5
1/7/2023 10:45:00 AM 11.65 52.97 6.87 5.06 -5
1/7/2023 11:00:00 AM 12.14 53.852 6.87 4.86 -5
1/7/2023 11:15:00 AM 12.79 55.022 6.87 4.87 -5
1/7/2023 11:30:00 AM 11.78 53.204 6.87 4.94 -5
1/7/2023 11:45:00 AM 12.15 53.87 6.87 4.76 -5
1/7/2023 12:00:00 PM 11.28 52.304 6.86 4.64 -5
1/7/2023 12:15:00 PM 12.24 54.032 6.86 4.61 -5
1/7/2023 12:30:00 PM 11.78 53.204 6.86 5.47 -5
1/7/2023 12:45:00 PM 11.65 52.97 6.86 4.85 -5
1/7/2023 1:00:00 PM 12.02 53.636 6.86 4.61 -5
1/7/2023 1:15:00 PM 12.41 54.338 6.86 4.46 -5
1/7/2023 1:30:00 PM 12.27 54.086 6.86 4.42 -5
1/7/2023 1:45:00 PM 12.27 54.086 6.86 8.81 -5
1/7/2023 2:00:00 PM 12.41 54.338 6.86 5.75 -5
1/7/2023 2:15:00 PM 12.41 54.338 6.85 4.76 -5
1/7/2023 2:30:00 PM 12.64 54.752 6.84 5.13 -5
1/7/2023 2:45:00 PM 12.27 54.086 6.8 5.94 -5
1/7/2023 3:00:00 PM 12.41 54.338 6.79 5.36 -5
1/7/2023 3:15:00 PM 12.16 53.888 6.82 5.74 -5
1/7/2023 3:30:00 PM 12.64 54.752 6.82 7.46 -5
1/7/2023 3:45:00 PM 12.52 54.536 6.82 5.25 -5
1/7/2023 4:00:00 PM 12.41 54.338 6.83 5.97 -5
1/7/2023 4:15:00 PM 12.41 54.338 6.83 5.48 -5
1/7/2023 4:30:00 PM 12.53 54.554 6.83 5.65 -5
1/7/2023 4:45:00 PM 13.15 55.67 6.81 4.96 -5
1/7/2023 5:00:00 PM 13.01 55.418 6.78 5.63 -5
1/7/2023 5:15:00 PM 13.02 55.436 6.82 6.41 -5
1/7/2023 5:30:00 PM 13.39 56.102 6.83 5.2 -5
1/7/2023 5:45:00 PM 13.15 55.67 6.84 5.02 -5
1/7/2023 6:00:00 PM 12.9 55.22 6.84 5.13 -5
1/7/2023 6:15:00 PM 13.15 55.67 6.85 5.1 -5
1/7/2023 6:30:00 PM 13.15 55.67 6.84 6.31 -5
1/7/2023 6:45:00 PM 13.01 55.418 6.83 4.79 -5
1/7/2023 7:00:00 PM 13.01 55.418 6.79 6.1 -5
1/7/2023 7:15:00 PM 13.26 55.868 6.84 5.55 -5
1/7/2023 7:30:00 PM 13.52 56.336 6.85 3.77 -5
1/7/2023 7:45:00 PM 13.15 55.67 6.8 3.69 -5
1/7/2023 8:00:00 PM 13.39 56.102 6.83 3.73 -5
1/7/2023 8:15:00 PM 13.02 55.436 6.85 3.64 -5
1/7/2023 8:30:00 PM 13.39 56.102 6.87 3.59 -5
1/7/2023 8:45:00 PM 13.39 56.102 6.87 3.56 -5
1/7/2023 9:00:00 PM 13.52 56.336 6.86 3.57 -5
1/7/2023 9:15:00 PM 13.66 56.588 6.87 3.53 -5
1/7/2023 9:30:00 PM 13.67 56.606 6.87 3.54 -5
1/7/2023 9:45:00 PM 13.67 56.606 6.88 3.53 -5
1/7/2023 10:00:00 PM 13.53 56.354 6.86 3.55 -5
1/7/2023 10:15:00 PM 13.91 57.038 6.87 3.53 -5
1/7/2023 10:30:00 PM 14.53 58.154 6.88 3.67 -5
1/7/2023 10:45:00 PM 14.91 58.838 6.88 3.68 -5
1/7/2023 11:00:00 PM 15.16 59.288 6.84 3.67 -5
1/7/2023 11:15:00 PM 15.16 59.288 6.74 3.65 -5
1/7/2023 11:30:00 PM 15.41 59.738 6.77 3.65 -5
1/7/2023 11:45:00 PM 14.04 57.272 7.05 3.64 -5
1/8/2023 12:00:00 AM 13.26 55.868 7.01 3.62 -5
1/8/2023 12:15:00 AM 13.26 55.868 7.12 3.62 -5
1/8/2023 12:30:00 AM 13.01 55.418 7.22 3.62 -5
1/8/2023 12:45:00 AM 13 55.4 7.26 3.62 -5
1/8/2023 1:00:00 AM 12.9 55.22 7.3 3.65 -5
1/8/2023 1:15:00 AM 12.87 55.166 7.29 3.72 -5
1/8/2023 1:30:00 AM 12.64 54.752 7.25 3.74 -5
1/8/2023 1:45:00 AM 12.61 54.698 7.29 3.72 -5
1/8/2023 2:00:00 AM 12.9 55.22 7.27 3.69 -5
1/8/2023 2:15:00 AM 12.79 55.022 7.28 3.67 -5
1/8/2023 2:30:00 AM 12.9 55.22 7.28 3.66 -5
1/8/2023 2:45:00 AM 13.02 55.436 7.23 3.61 -5
1/8/2023 3:00:00 AM 13.26 55.868 7.24 3.62 -5
1/8/2023 3:15:00 AM 13.52 56.336 7.23 3.63 -5
1/8/2023 3:30:00 AM 13.53 56.354 7.3 3.62 -5
1/8/2023 3:45:00 AM 13.39 56.102 7.27 3.59 -5
1/8/2023 4:00:00 AM 13.26 55.868 7.28 3.6 -5
1/8/2023 4:15:00 AM 13.02 55.436 7.31 3.58 -5
1/8/2023 4:30:00 AM 13.02 55.436 7.31 3.56 -5
1/8/2023 4:45:00 AM 13.01 55.418 7.29 3.59 -5
1/8/2023 5:00:00 AM 12.9 55.22 7.33 3.58 -5
1/8/2023 5:15:00 AM 12.9 55.22 7.28 3.56 -5
1/8/2023 5:30:00 AM 13.02 55.436 7.32 3.57 -5
1/8/2023 5:45:00 AM 13.02 55.436 7.32 3.54 -5
1/8/2023 6:00:00 AM 13.02 55.436 7.3 3.56 -5
1/8/2023 6:15:00 AM 12.64 54.752 7.27 3.57 -5
1/8/2023 6:30:00 AM 12.41 54.338 7.27 3.6 -5
1/8/2023 6:45:00 AM 11.89 53.402 7.28 3.58 -5
1/8/2023 7:00:00 AM 12.02 53.636 7.31 3.61 -5
1/8/2023 7:15:00 AM 12.02 53.636 7.35 3.6 -5
1/8/2023 7:30:00 AM 12.15 53.87 7.28 3.62 -5
1/8/2023 7:45:00 AM 12.02 53.636 7.33 3.63 -5
1/8/2023 8:00:00 AM 11.89 53.402 7.3 3.63 -5
1/8/2023 8:15:00 AM 12.02 53.636 7.32 3.64 -5
1/8/2023 8:30:00 AM 12.41 54.338 7.33 3.65 -5
1/8/2023 8:45:00 AM 12.41 54.338 7.35 3.65 -5
1/8/2023 9:00:00 AM 12.27 54.086 7.34 3.68 -5
1/8/2023 9:15:00 AM 12.27 54.086 7.33 3.68 -5
1/8/2023 9:30:00 AM 12.02 53.636 7.35 3.66 -5
1/8/2023 9:45:00 AM 11.52 52.736 7.32 3.67 -5
1/8/2023 10:00:00 AM 13.01 55.418 7.35 3.69 -5
1/8/2023 10:15:00 AM 12.27 54.086 7.29 3.71 -5
1/8/2023 10:30:00 AM 12.15 53.87 7.28 3.74 -5
1/8/2023 10:45:00 AM 10.76 51.368 7.32 3.81 -5
1/8/2023 11:00:00 AM 9.28 48.704 7.37 3.85 -5
1/8/2023 11:15:00 AM 10.02 50.036 7.34 3.89 -5
1/8/2023 11:30:00 AM 10.16 50.288 7.37 3.92 -5
1/8/2023 11:45:00 AM 10.39 50.702 7.31 3.93 -5
1/8/2023 12:00:00 PM 11.02 51.836 7.34 3.92 -5
1/8/2023 12:15:00 PM 11.15 52.07 7.35 3.93 -5
1/8/2023 12:30:00 PM 11.65 52.97 7.35 3.92 -5
1/8/2023 12:45:00 PM 11.52 52.736 7.4 3.89 -5
1/8/2023 1:00:00 PM 11.28 52.304 7.37 3.87 -5
1/8/2023 1:15:00 PM 11.02 51.836 7.37 3.86 -5
1/8/2023 1:30:00 PM 11.28 52.304 7.33 3.83 -5
1/8/2023 1:45:00 PM 11.4 52.52 7.38 3.84 -5
1/8/2023 2:00:00 PM 11.15 52.07 7.37 3.82 -5
1/8/2023 2:15:00 PM 11.39 52.502 7.27 3.81 -5
1/8/2023 2:30:00 PM 12.15 53.87 7.33 3.81 -5
1/8/2023 2:45:00 PM 10.39 50.702 7.3 3.79 -5
1/8/2023 3:00:00 PM 10.91 51.638 7.36 3.78 -5
1/8/2023 3:15:00 PM 11.02 51.836 7.35 3.82 -5
1/8/2023 3:30:00 PM 10.91 51.638 7.32 3.8 -5
1/8/2023 3:45:00 PM 11.39 52.502 7.35 3.78 -5
1/8/2023 4:00:00 PM 11.28 52.304 7.37 3.76 -5
1/8/2023 4:15:00 PM 11.89 53.402 7.39 3.79 -5
1/8/2023 4:30:00 PM 13.26 55.868 7.38 3.77 -5
1/8/2023 4:45:00 PM 12.53 54.554 7.4 3.74 -5
1/8/2023 5:00:00 PM 12.9 55.22 7.34 3.74 -5
1/8/2023 5:15:00 PM 13.39 56.102 7.4 3.75 -5
1/8/2023 5:30:00 PM 12.89 55.202 7.34 3.74 -5
1/8/2023 5:45:00 PM 13.15 55.67 7.29 3.73 -5
1/8/2023 6:00:00 PM 13.78 56.804 7.38 3.74 -5
1/8/2023 6:15:00 PM 13.26 55.868 7.29 3.75 -5
1/8/2023 6:30:00 PM 13.53 56.354 7.32 3.79 -5
1/8/2023 6:45:00 PM 13.66 56.588 7.28 3.79 -5
1/8/2023 7:00:00 PM 13.52 56.336 7.37 3.82 -5
1/8/2023 7:15:00 PM 13.53 56.354 7.38 3.86 -5
1/8/2023 7:30:00 PM 13.89 57.002 7.35 3.87 -5
1/8/2023 7:45:00 PM 13.4 56.12 7.37 3.84 -5
1/8/2023 8:00:00 PM 13.39 56.102 7.37 3.88 -5
1/8/2023 8:15:00 PM 14.3 57.74 7.39 3.94 -5
1/8/2023 8:30:00 PM 15.28 59.504 7.41 3.95 -5
1/8/2023 8:45:00 PM 15.54 59.972 7.45 3.95 -5
1/8/2023 9:00:00 PM 15.78 60.404 7.45 3.94 -5
1/8/2023 9:15:00 PM 15.78 60.404 7.42 3.97 -5
1/8/2023 9:30:00 PM 15.91 60.638 7.44 3.95 -5
1/8/2023 9:45:00 PM 15.91 60.638 7.44 3.96 -5
1/8/2023 10:00:00 PM 15.54 59.972 7.43 3.99 -5
1/8/2023 10:15:00 PM 15.28 59.504 7.41 4.01 -5
1/8/2023 10:30:00 PM 15.78 60.404 7.44 4.04 -5
1/8/2023 10:45:00 PM 15.78 60.404 7.44 4.08 -5
1/8/2023 11:00:00 PM 16.03 60.854 7.42 4.13 -5
1/8/2023 11:15:00 PM 16.29 61.322 7.39 4.13 -5
1/8/2023 11:30:00 PM 16.4 61.52 7.44 4.14 -5
1/8/2023 11:45:00 PM 16.92 62.456 7.42 4.13 -5
1/9/2023 12:00:00 AM 17.29 63.122 7.43 4.12 -5
1/9/2023 12:15:00 AM 15.78 60.404 7.31 4.13 -5
1/9/2023 12:30:00 AM 15.78 60.404 7.38 4.17 -5
1/9/2023 12:45:00 AM 18.52 65.336 7.45 4.16 -5
1/9/2023 1:00:00 AM 20.67 69.206 7.46 4.23 -5
1/9/2023 1:15:00 AM 21.41 70.538 7.49 4.23 -5
1/9/2023 1:30:00 AM 21.78 71.204 7.49 4.24 -5
1/9/2023 1:45:00 AM 21.91 71.438 7.48 4.24 -5
1/9/2023 2:00:00 AM 22.02 71.636 7.45 4.23 -5
1/9/2023 2:15:00 AM 22.28 72.104 7.47 4.24 -5
1/9/2023 2:30:00 AM 22.17 71.906 7.44 4.25 -5
1/9/2023 2:45:00 AM 22.02 71.636 7.4 4.23 -5
1/9/2023 3:00:00 AM 22.17 71.906 7.44 4.23 -5
1/9/2023 3:15:00 AM 22.65 72.77 7.46 4.18 -5
1/9/2023 3:30:00 AM 22.92 73.256 7.46 4.13 -5
1/9/2023 3:45:00 AM 22.78 73.004 7.49 4.16 -5
1/9/2023 4:00:00 AM 22.91 73.238 7.5 4.11 -5
1/9/2023 4:15:00 AM 21.54 70.772 7.35 4.09 -5
1/9/2023 4:30:00 AM 20.15 68.27 7.36 4.08 -5
1/9/2023 4:45:00 AM 20.04 68.07201 7.38 4.04 -5
1/9/2023 5:00:00 AM 20.04 68.07201 7.41 4.02 -5
1/9/2023 5:15:00 AM 19.67 67.406 7.39 4.04 -5
1/9/2023 5:30:00 AM 18.91 66.038 7.42 4.03 -5
1/9/2023 5:45:00 AM 18.78 65.804 7.42 4.03 -5
1/9/2023 6:00:00 AM 18.91 66.038 7.42 4.01 -5
1/9/2023 6:15:00 AM 18.91 66.038 7.42 3.99 -5
1/9/2023 6:30:00 AM 15.04 59.072 7.3 3.98 -5
1/9/2023 6:45:00 AM 14.3 57.74 7.34 3.97 -5
1/9/2023 7:00:00 AM 14.3 57.74 7.35 3.95 -5
1/9/2023 7:15:00 AM 14.41 57.938 7.38 3.96 -5
1/9/2023 7:30:00 AM 6.64 43.952 7.34 20.74 -5
1/9/2023 7:45:00 AM 6.63 43.934 7.37 19.19 -5
1/9/2023 8:00:00 AM 6.41 43.538 7.45 19.02 -5
1/9/2023 8:15:00 AM 6.64 43.952 7.39 19.18 -5
1/9/2023 8:30:00 AM 6.64 43.952 7.41 19.32 -5
1/9/2023 8:45:00 AM 6.64 43.952 7.41 19.68 -5
1/9/2023 9:00:00 AM 6.9 44.42 7.42 19.22 -5
1/9/2023 9:15:00 AM 6.64 43.952 7.39 18.89 -5
1/9/2023 9:30:00 AM 6.78 44.204 7.41 19.33 -5
1/9/2023 9:45:00 AM 7.16 44.888 7.38 19.06 -5
1/9/2023 10:00:00 AM 6.9 44.42 7.37 18.91 -5
1/9/2023 10:15:00 AM 6.9 44.42 7.37 18.55 -5
1/9/2023 10:30:00 AM 7.16 44.888 7.43 18.39 -5
1/9/2023 10:45:00 AM 6.78 44.204 7.39 18.3 -5
1/9/2023 11:00:00 AM 6.9 44.42 7.43 18.93 -5
1/9/2023 11:15:00 AM 7.16 44.888 7.4 18.63 -5
1/9/2023 11:30:00 AM 7.16 44.888 7.42 19.01 -5
1/9/2023 11:45:00 AM 6.9 44.42 7.34 18.71 -5
1/9/2023 12:00:00 PM 7.16 44.888 7.38 18.4 -5
1/9/2023 12:15:00 PM 6.9 44.42 7.4 18.64 -5
1/9/2023 12:30:00 PM 7.02 44.636 7.41 18.64 -5
1/9/2023 12:45:00 PM 7.02 44.636 7.34 18.74 -5
1/9/2023 1:00:00 PM 7.02 44.636 7.4 18.59 -5
1/9/2023 1:15:00 PM 7.02 44.636 7.4 18.74 -5
1/9/2023 1:30:00 PM 6.9 44.42 7.38 18.63 -5
1/9/2023 1:45:00 PM 6.9 44.42 7.38 18.08 -5
1/9/2023 2:00:00 PM 6.79 44.222 7.36 18.08 -5
1/9/2023 2:15:00 PM 7.02 44.636 7.37 17.79 -5
1/9/2023 2:30:00 PM 7.02 44.636 7.35 17.15 -5
1/9/2023 2:45:00 PM 7.02 44.636 7.32 17.92 -5
1/9/2023 3:00:00 PM 7.02 44.636 7.4 17.81 -5
1/9/2023 3:15:00 PM 6.9 44.42 7.36 17.62 -5
1/9/2023 3:30:00 PM 6.78 44.204 7.35 18 -5
1/9/2023 3:45:00 PM 6.9 44.42 7.39 17.42 -5
1/9/2023 4:00:00 PM 7.02 44.636 7.36 17.75 -5
1/9/2023 4:15:00 PM 7.16 44.888 7.43 17.85 -5
1/9/2023 4:30:00 PM 7.02 44.636 7.38 17.33 -5
1/9/2023 4:45:00 PM 7.16 44.888 7.42 17.46 -5
1/9/2023 5:00:00 PM 7.16 44.888 7.39 17.77 -5
1/9/2023 5:15:00 PM 7.16 44.888 7.42 17.69 -5
1/9/2023 5:30:00 PM 7.02 44.636 7.43 17.98 -5
1/9/2023 5:45:00 PM 7.02 44.636 7.44 17.92 -5
1/9/2023 6:00:00 PM 6.9 44.42 7.43 17.82 -5
1/9/2023 6:15:00 PM 6.9 44.42 7.39 17.72 -5
1/9/2023 6:30:00 PM 6.9 44.42 7.37 17.78 -5
1/9/2023 6:45:00 PM 7.16 44.888 7.39 17.99 -5
1/9/2023 7:00:00 PM 7.27 45.086 7.44 17.95 -5
1/9/2023 7:15:00 PM 7.16 44.888 7.44 17.74 -5
1/9/2023 7:30:00 PM 7.16 44.888 7.42 17.57 -5
1/9/2023 7:45:00 PM 7.02 44.636 7.43 17.6 -5
1/9/2023 8:00:00 PM 7.03 44.654 7.4 17.93 -5
1/9/2023 8:15:00 PM 7.16 44.888 7.41 18.23 -5
1/9/2023 8:30:00 PM 7.16 44.888 7.39 18.11 -5
1/9/2023 8:45:00 PM 7.16 44.888 7.38 18.13 -5
1/9/2023 9:00:00 PM 7.16 44.888 7.38 18.03 -5
1/9/2023 9:15:00 PM 7.16 44.888 7.41 17.83 -5
1/9/2023 9:30:00 PM 7.16 44.888 7.42 17.81 -5
1/9/2023 9:45:00 PM 7.27 45.086 7.39 17.74 -5
1/9/2023 10:00:00 PM 7.09 44.762 7.4 17.61 -5
1/9/2023 10:15:00 PM 7.02 44.636 7.41 17.95 -5
1/9/2023 10:30:00 PM 7.27 45.086 7.41 17.84 -5
1/9/2023 10:45:00 PM 7.4 45.32 7.4 17.81 -5
1/9/2023 11:00:00 PM 7.16 44.888 7.4 17.93 -5
1/9/2023 11:15:00 PM 7.4 45.32 7.37 17.73 -5
1/9/2023 11:30:00 PM 7.02 44.636 7.38 17.65 -5
1/9/2023 11:45:00 PM 7.27 45.086 7.37 17.48 -5
1/10/2023 12:00:00 AM 7.02 44.636 7.39 17.55 -5
1/10/2023 12:15:00 AM 7.16 44.888 7.38 17.49 -5
1/10/2023 12:30:00 AM 7.02 44.636 7.38 17.45 -5
1/10/2023 12:45:00 AM 7.27 45.086 7.37 17.49 -5
1/10/2023 1:00:00 AM 6.9 44.42 7.37 16.91 -5
1/10/2023 1:15:00 AM 7.02 44.636 7.38 17.08 -5
1/10/2023 1:30:00 AM 7.16 44.888 7.37 17.27 -5
1/10/2023 1:45:00 AM 7.16 44.888 7.35 17.03 -5
1/10/2023 2:00:00 AM 6.9 44.42 7.38 17.04 -5
1/10/2023 2:15:00 AM 6.9 44.42 7.33 16.97 -5
1/10/2023 2:30:00 AM 7.16 44.888 7.35 16.99 -5
1/10/2023 2:45:00 AM 7.02 44.636 7.35 17.06 -5
1/10/2023 3:00:00 AM 6.52 43.736 7.35 17.13 -5
1/10/2023 3:15:00 AM 6.63 43.934 7.35 17.15 -5
1/10/2023 3:30:00 AM 6.9 44.42 7.35 16.85 -5
1/10/2023 3:45:00 AM 6.64 43.952 7.33 16.96 -5
1/10/2023 4:00:00 AM 6.78 44.204 7.34 16.93 -5
1/10/2023 4:15:00 AM 6.71 44.078 7.34 16.95 -5
1/10/2023 4:30:00 AM 6.63 43.934 7.34 16.87 -5
1/10/2023 4:45:00 AM 6.78 44.204 7.34 16.92 -5
1/10/2023 5:00:00 AM 6.64 43.952 7.35 17 -5
1/10/2023 5:15:00 AM 6.52 43.736 7.34 17 -5
1/10/2023 5:30:00 AM 6.41 43.538 7.33 17.05 -5
1/10/2023 5:45:00 AM 6.41 43.538 7.33 17 -5
1/10/2023 6:00:00 AM 6.64 43.952 7.33 17.03 -5
1/10/2023 6:15:00 AM 6.52 43.736 7.33 16.87 -5
1/10/2023 6:30:00 AM 6.52 43.736 7.33 16.84 -5
1/10/2023 6:45:00 AM 7.02 44.636 7.38 17.03 -5
1/10/2023 7:00:00 AM 7.4 45.32 7.38 16.91 -5
1/10/2023 7:15:00 AM 7.4 45.32 7.37 16.95 -5
1/10/2023 7:30:00 AM 7.53 45.554 7.36 16.86 -5
1/10/2023 7:45:00 AM 8.12 46.616 7.37 17.05 -5
1/10/2023 8:00:00 AM 8.66 47.588 7.38 17.11 -5
1/10/2023 8:15:00 AM 8.66 47.588 7.38 17.03 -5
1/10/2023 8:30:00 AM 8.66 47.588 7.37 16.87 -5
1/10/2023 8:45:00 AM 8.9 48.02 7.37 16.65 -5
1/10/2023 9:00:00 AM 8.9 48.02 7.38 16.54 -5
1/10/2023 9:15:00 AM 9.03 48.254 7.37 16.84 -5
1/10/2023 9:30:00 AM 9.14 48.452 7.39 16.83 -5
1/10/2023 9:45:00 AM 9.14 48.452 7.39 16.82 -5
1/10/2023 10:00:00 AM 9.03 48.254 7.37 16.73 -5
1/10/2023 10:15:00 AM 9.4 48.92 7.37 16.77 -5
1/10/2023 10:30:00 AM 9.65 49.37 7.39 16.88 -5
1/10/2023 10:45:00 AM 10.16 50.288 7.38 16.83 -5
1/10/2023 11:00:00 AM 10.02 50.036 7.39 16.78 -5
1/10/2023 11:15:00 AM 10.16 50.288 7.38 16.74 -5
1/10/2023 11:30:00 AM 9.9 49.82 7.38 16.6 -5
1/10/2023 11:45:00 AM 10.28 50.504 7.38 16.77 -5
1/10/2023 12:00:00 PM 10.38 50.684 7.39 16.85 -5
1/10/2023 12:15:00 PM 10.53 50.954 7.4 16.89 -5
1/10/2023 12:30:00 PM 10.65 51.17 7.39 16.69 -5
1/10/2023 12:45:00 PM 10.76 51.368 7.41 16.75 -5
1/10/2023 1:00:00 PM 10.76 51.368 7.41 16.7 -5
1/10/2023 1:15:00 PM 10.38 50.684 7.39 16.67 -5
1/10/2023 1:30:00 PM 10.53 50.954 7.42 16.61 -5
1/10/2023 1:45:00 PM 10.53 50.954 7.39 16.36 -5
1/10/2023 2:00:00 PM 10.38 50.684 7.41 16.75 -5
1/10/2023 2:15:00 PM 10.28 50.504 7.44 16.45 -5
1/10/2023 2:30:00 PM 10.27 50.486 7.44 16.51 -5
1/10/2023 2:45:00 PM 10.28 50.504 7.44 16.42 -5
1/10/2023 3:00:00 PM 10.15 50.27 7.44 16.48 -5
1/10/2023 3:15:00 PM 9.9 49.82 7.44 16.6 -5
1/10/2023 3:30:00 PM 10.5 50.9 7.45 16.47 -5
1/10/2023 3:45:00 PM 10.53 50.954 7.44 16.49 -5
1/10/2023 4:00:00 PM 11.02 51.836 7.44 16.59 -5
1/10/2023 4:15:00 PM 11.02 51.836 7.44 16.48 -5
1/10/2023 4:30:00 PM 9.9 49.82 7.42 16.43 -5
1/10/2023 4:45:00 PM 10.38 50.684 7.43 16.41 -5
1/10/2023 5:00:00 PM 10.65 51.17 7.44 16.32 -5
1/10/2023 5:15:00 PM 10.65 51.17 7.41 16.13 -5
1/10/2023 5:30:00 PM 10.53 50.954 7.43 16.21 -5
1/10/2023 5:45:00 PM 10.76 51.368 7.42 16.29 -5
1/10/2023 6:00:00 PM 11.28 52.304 7.44 16.51 -5
1/10/2023 6:15:00 PM 12.64 54.752 7.44 16.9 -5
1/10/2023 6:30:00 PM 12.78 55.004 7.44 16.99 -5
1/10/2023 6:45:00 PM 12.78 55.004 7.44 16.99 -5
1/10/2023 7:00:00 PM 12.79 55.022 7.44 16.9 -5
1/10/2023 7:15:00 PM 12.02 53.636 7.44 17.42 -5
1/10/2023 7:30:00 PM 11.65 52.97 7.43 17.37 -5
1/10/2023 7:45:00 PM 12.02 53.636 7.43 17.49 -5
1/10/2023 8:00:00 PM 11.89 53.402 7.42 17.18 -5
1/10/2023 8:15:00 PM 11.78 53.204 7.43 17.22 -5
1/10/2023 8:30:00 PM 11.78 53.204 7.43 17.14 -5
1/10/2023 8:45:00 PM 11.65 52.97 7.42 16.99 -5
1/10/2023 9:00:00 PM 11.89 53.402 7.43 16.85 -5
1/10/2023 9:15:00 PM 11.89 53.402 7.43 16.64 -5
1/10/2023 9:30:00 PM 12.02 53.636 7.43 16.62 -5
1/10/2023 9:45:00 PM 12.02 53.636 7.43 16.43 -5
1/10/2023 10:00:00 PM 12.03 53.654 7.43 16.37 -5
1/10/2023 10:15:00 PM 12.15 53.87 7.43 16.45 -5
1/10/2023 10:30:00 PM 12.41 54.338 7.41 16.3 -5
1/10/2023 10:45:00 PM 12.41 54.338 7.41 16.29 -5
1/10/2023 11:00:00 PM 12.41 54.338 7.4 16.43 -5
1/10/2023 11:15:00 PM 12.15 53.87 7.4 16.47 -5
1/10/2023 11:30:00 PM 12.52 54.536 7.41 16.52 -5
1/10/2023 11:45:00 PM 12.02 53.636 7.4 16.47 -5
1/11/2023 12:00:00 AM 12.64 54.752 7.4 16.12 -5
1/11/2023 12:15:00 AM 12.52 54.536 7.39 16.41 -5
1/11/2023 12:30:00 AM 12.52 54.536 7.4 16.23 -5
1/11/2023 12:45:00 AM 12.79 55.022 7.4 16.21 -5
1/11/2023 1:00:00 AM 12.41 54.338 7.4 16.11 -5
1/11/2023 1:15:00 AM 12.64 54.752 7.38 16.02 -5
1/11/2023 1:30:00 AM 12.52 54.536 7.37 16.11 -5
1/11/2023 1:45:00 AM 12.78 55.004 7.38 15.92 -5
1/11/2023 2:00:00 AM 13.26 55.868 7.38 15.86 -5
1/11/2023 2:15:00 AM 13.26 55.868 7.4 15.94 -5
1/11/2023 2:30:00 AM 13.39 56.102 7.34 15.77 -5
1/11/2023 2:45:00 AM 13.26 55.868 7.37 15.81 -5
1/11/2023 3:00:00 AM 12.78 55.004 7.4 15.57 -5
1/11/2023 3:15:00 AM 12.64 54.752 7.37 15.67 -5
1/11/2023 3:30:00 AM 11.89 53.402 7.4 15.53 -5
1/11/2023 3:45:00 AM 12.02 53.636 7.41 15.58 -5
1/11/2023 4:00:00 AM 12.02 53.636 7.4 15.5 -5
1/11/2023 4:15:00 AM 11.78 53.204 7.41 15.45 -5
1/11/2023 4:30:00 AM 11.52 52.736 7.43 15.46 -5
1/11/2023 4:45:00 AM 11.15 52.07 7.41 15.51 -5
1/11/2023 5:00:00 AM 12.52 54.536 7.3 15.64 -5
1/11/2023 5:15:00 AM 12.26 54.068 7.34 15.42 -5
1/11/2023 5:30:00 AM 12.41 54.338 7.36 15.53 -5
1/11/2023 5:45:00 AM 12.41 54.338 7.36 15.39 -5
1/11/2023 6:00:00 AM 12.26 54.068 7.38 15.31 -5
1/11/2023 6:15:00 AM 12.41 54.338 7.35 15.3 -5
1/11/2023 6:30:00 AM 12.27 54.086 7.35 15.4 -5
1/11/2023 6:45:00 AM 12.27 54.086 7.35 15.59 -5
1/11/2023 7:00:00 AM 12.41 54.338 7.35 15.39 -5
1/11/2023 7:15:00 AM 6.27 43.286 7.37 16.74 -5
1/11/2023 7:30:00 AM 6.26 43.268 7.32 12.2 -5
1/11/2023 7:45:00 AM 6.15 43.07 7.35 12.09 -5
1/11/2023 8:00:00 AM 5.9 42.62 7.35 12.06 -5
1/11/2023 8:15:00 AM 5.9 42.62 7.34 12.12 -5
1/11/2023 8:30:00 AM 5.9 42.62 7.35 12 -5
1/11/2023 8:45:00 AM 6.15 43.07 7.34 12.02 -5
1/11/2023 9:00:00 AM 5.9 42.62 7.35 12.06 -5
1/11/2023 9:15:00 AM 5.78 42.404 7.34 12.02 -5
1/11/2023 9:30:00 AM 5.78 42.404 7.34 12.04 -5
1/11/2023 9:45:00 AM 5.39 41.702 7.34 11.93 -5
1/11/2023 10:00:00 AM 5.78 42.404 7.34 11.91 -5
1/11/2023 10:15:00 AM 5.65 42.17 7.35 12.06 -5
1/11/2023 10:30:00 AM 5.65 42.17 7.35 12.03 -5
1/11/2023 10:45:00 AM 5.65 42.17 7.36 11.93 -5
1/11/2023 11:00:00 AM 5.65 42.17 7.36 12.05 -5
1/11/2023 11:15:00 AM 5.65 42.17 7.36 12 -5
1/11/2023 11:30:00 AM 5.65 42.17 7.36 11.97 -5
1/11/2023 11:45:00 AM 5.52 41.936 7.37 11.87 -5
1/11/2023 12:00:00 PM 5.65 42.17 7.38 11.98 -5
1/11/2023 12:15:00 PM 5.78 42.404 7.38 11.97 -5
1/11/2023 12:30:00 PM 5.78 42.404 7.39 11.99 -5
1/11/2023 12:45:00 PM 5.65 42.17 7.4 11.96 -5
1/11/2023 1:00:00 PM 5.89 42.602 7.39 11.91 -5
1/11/2023 1:15:00 PM 5.89 42.602 7.4 11.96 -5
1/11/2023 1:30:00 PM 5.78 42.404 7.4 11.97 -5
1/11/2023 1:45:00 PM 5.65 42.17 7.4 11.83 -5
1/11/2023 2:00:00 PM 5.9 42.62 7.41 11.92 -5
1/11/2023 2:15:00 PM 5.78 42.404 7.4 11.8 -5
1/11/2023 2:30:00 PM 5.9 42.62 7.41 11.77 -5
1/11/2023 2:45:00 PM 5.66 42.188 7.42 11.81 -5
1/11/2023 3:00:00 PM 6.03 42.854 7.43 11.76 -5
1/11/2023 3:15:00 PM 6.03 42.854 7.43 11.85 -5
1/11/2023 3:30:00 PM 6.02 42.836 7.43 11.81 -5
1/11/2023 3:45:00 PM 5.78 42.404 7.42 11.61 -5
1/11/2023 4:00:00 PM 6.03 42.854 7.41 11.73 -5
1/11/2023 4:15:00 PM 5.89 42.602 7.41 11.72 -5
1/11/2023 4:30:00 PM 5.89 42.602 7.34 11.49 -5
1/11/2023 4:45:00 PM 5.89 42.602 7.41 11.57 -5
1/11/2023 5:00:00 PM 5.78 42.404 7.41 11.63 -5
1/11/2023 5:15:00 PM 5.9 42.62 7.41 11.63 -5
1/11/2023 5:30:00 PM 5.89 42.602 7.4 11.56 -5
1/11/2023 5:45:00 PM 5.9 42.62 7.4 11.58 -5
1/11/2023 6:00:00 PM 6.03 42.854 7.4 11.42 -5
1/11/2023 6:15:00 PM 5.78 42.404 7.39 11.65 -5
1/11/2023 6:30:00 PM 5.78 42.404 7.38 11.94 -5
1/11/2023 6:45:00 PM 5.65 42.17 7.38 12.08 -5
1/11/2023 7:00:00 PM 5.52 41.936 7.39 12.05 -5
1/11/2023 7:15:00 PM 5.78 42.404 7.39 11.92 -5
1/11/2023 7:30:00 PM 5.65 42.17 7.4 11.9 -5
1/11/2023 7:45:00 PM 5.65 42.17 7.4 11.86 -5
1/11/2023 8:00:00 PM 5.65 42.17 7.4 11.78 -5
1/11/2023 8:15:00 PM 5.78 42.404 7.4 11.92 -5
1/11/2023 8:30:00 PM 5.78 42.404 7.4 11.73 -5
1/11/2023 8:45:00 PM 5.65 42.17 7.4 11.81 -5
1/11/2023 9:00:00 PM 5.65 42.17 7.4 11.77 -5
1/11/2023 9:15:00 PM 5.89 42.602 7.4 11.76 -5
1/11/2023 9:30:00 PM 5.78 42.404 7.41 11.63 -5
1/11/2023 9:45:00 PM 5.65 42.17 7.4 11.82 -5
1/11/2023 10:00:00 PM 5.77 42.386 7.4 11.8 -5
1/11/2023 10:15:00 PM 5.89 42.602 7.4 11.9 -5
1/11/2023 10:30:00 PM 5.78 42.404 7.4 11.92 -5
1/11/2023 10:45:00 PM 5.89 42.602 7.4 12.12 -5
1/11/2023 11:00:00 PM 5.65 42.17 7.41 12.22 -5
1/11/2023 11:15:00 PM 6.03 42.854 7.41 12.09 -5
1/11/2023 11:30:00 PM 6.03 42.854 7.4 12.14 -5
1/11/2023 11:45:00 PM 5.65 42.17 7.41 11.99 -5
1/12/2023 12:00:00 AM 5.9 42.62 7.4 11.87 -5
1/12/2023 12:15:00 AM 5.78 42.404 7.4 11.85 -5
1/12/2023 12:30:00 AM 5.66 42.188 7.4 11.95 -5
1/12/2023 12:45:00 AM 6.03 42.854 7.4 11.84 -5
1/12/2023 1:00:00 AM 5.78 42.404 7.4 11.82 -5
1/12/2023 1:15:00 AM 5.9 42.62 7.4 11.73 -5
1/12/2023 1:30:00 AM 5.89 42.602 7.4 11.73 -5
1/12/2023 1:45:00 AM 5.78 42.404 7.39 11.78 -5
1/12/2023 2:00:00 AM 5.9 42.62 7.39 11.72 -5
1/12/2023 2:15:00 AM 5.89 42.602 7.38 11.95 -5
1/12/2023 2:30:00 AM 5.89 42.602 7.38 11.65 -5
1/12/2023 2:45:00 AM 5.78 42.404 7.38 11.69 -5
1/12/2023 3:00:00 AM 6.02 42.836 7.38 11.55 -5
1/12/2023 3:15:00 AM 5.65 42.17 7.38 11.6 -5
1/12/2023 3:30:00 AM 5.89 42.602 7.39 11.65 -5
1/12/2023 3:45:00 AM 5.78 42.404 7.4 11.54 -5
1/12/2023 4:00:00 AM 5.9 42.62 7.37 11.46 -5
1/12/2023 4:15:00 AM 5.89 42.602 7.38 11.34 -5
1/12/2023 4:30:00 AM 5.9 42.62 7.33 11.33 -5
1/12/2023 4:45:00 AM 5.86 42.548 7.38 11.38 -5
1/12/2023 5:00:00 AM 5.78 42.404 7.38 11.32 -5
1/12/2023 5:15:00 AM 5.65 42.17 7.39 11.26 -5
1/12/2023 5:30:00 AM 6.03 42.854 7.39 11.3 -5
1/12/2023 5:45:00 AM 5.65 42.17 7.39 11.3 -5
1/12/2023 6:00:00 AM 6.03 42.854 7.39 11.23 -5
1/12/2023 6:15:00 AM 5.9 42.62 7.4 11.2 -5
1/12/2023 6:30:00 AM 6.03 42.854 7.38 11.34 -5
1/12/2023 6:45:00 AM 6.03 42.854 7.4 10.45 -5
1/12/2023 7:00:00 AM 6.26 43.268 7.39 10.48 -5
1/12/2023 7:15:00 AM 6 42.8 7.39 10.43 -5
1/12/2023 7:30:00 AM 5.78 42.404 7.39 10.34 -5
1/12/2023 7:45:00 AM 5.65 42.17 7.39 10.49 -5
1/12/2023 8:00:00 AM 5.78 42.404 7.39 10.48 -5
1/12/2023 8:15:00 AM 6.15 43.07 7.4 10.55 -5
1/12/2023 8:30:00 AM 6.64 43.952 7.39 10.57 -5
1/12/2023 8:45:00 AM 6.03 42.854 7.4 10.71 -5
1/12/2023 9:00:00 AM 5.78 42.404 7.4 10.57 -5
1/12/2023 9:15:00 AM 5.78 42.404 7.39 10.62 -5
1/12/2023 9:30:00 AM 6.03 42.854 7.39 10.62 -5
1/12/2023 9:45:00 AM 6.26 43.268 7.39 10.69 -5
1/12/2023 10:00:00 AM 5.78 42.404 7.4 10.59 -5
1/12/2023 10:15:00 AM 5.9 42.62 7.39 10.47 -5
1/12/2023 10:30:00 AM 5.78 42.404 7.4 10.52 -5
1/12/2023 10:45:00 AM 5.78 42.404 7.41 10.56 -5
1/12/2023 11:00:00 AM 6.03 42.854 7.39 10.36 -5
1/12/2023 11:15:00 AM 5.9 42.62 7.39 10.38 -5
1/12/2023 11:30:00 AM 6.15 43.07 7.39 10.44 -5
1/12/2023 11:45:00 AM 5.9 42.62 7.39 10.49 -5
1/12/2023 12:00:00 PM 6.12 43.016 7.4 10.46 -5
1/12/2023 12:15:00 PM 6.26 43.268 7.4 10.46 -5
1/12/2023 12:30:00 PM 6.26 43.268 7.4 10.45 -5
1/12/2023 12:45:00 PM 5.9 42.62 7.41 10.41 -5
1/12/2023 1:00:00 PM 6.15 43.07 7.4 10.44 -5
1/12/2023 1:15:00 PM 5.9 42.62 7.41 10.5 -5
1/12/2023 1:30:00 PM 5.89 42.602 7.42 10.32 -5
1/12/2023 1:45:00 PM 6.15 43.07 7.41 10.51 -5
1/12/2023 2:00:00 PM 5.9 42.62 7.42 10.49 -5
1/12/2023 2:15:00 PM 6.02 42.836 7.43 10.42 -5
1/12/2023 2:30:00 PM 6.02 42.836 7.43 10.39 -5
1/12/2023 2:45:00 PM 6.15 43.07 7.43 10.46 -5
1/12/2023 3:00:00 PM 6.15 43.07 7.43 10.4 -5
1/12/2023 3:15:00 PM 5.9 42.62 7.44 10.38 -5
1/12/2023 3:30:00 PM 5.78 42.404 7.43 10.32 -5
1/12/2023 3:45:00 PM 6.15 43.07 7.43 10.43 -5
1/12/2023 4:00:00 PM 6.15 43.07 7.44 10.41 -5
1/12/2023 4:15:00 PM 6.03 42.854 7.43 10.35 -5
1/12/2023 4:30:00 PM 6.41 43.538 7.44 10.5 -5
1/12/2023 4:45:00 PM 6.26 43.268 7.43 10.5 -5
1/12/2023 5:00:00 PM 6.03 42.854 7.43 10.66 -5
1/12/2023 5:15:00 PM 6.52 43.736 7.44 10.66 -5
1/12/2023 5:30:00 PM 6.52 43.736 7.44 10.71 -5
1/12/2023 5:45:00 PM 6.15 43.07 7.44 10.73 -5
1/12/2023 6:00:00 PM 6.15 43.07 7.45 10.53 -5
1/12/2023 6:15:00 PM 6.27 43.286 7.44 10.6 -5
1/12/2023 6:30:00 PM 6.03 42.854 7.44 10.7 -5
1/12/2023 6:45:00 PM 6.03 42.854 7.44 10.96 -5
1/12/2023 7:00:00 PM 6.52 43.736 7.46 11.05 -5
1/12/2023 7:15:00 PM 6.41 43.538 7.46 10.96 -5
1/12/2023 7:30:00 PM 6.03 42.854 7.47 10.92 -5
1/12/2023 7:45:00 PM 6.27 43.286 7.46 10.79 -5
1/12/2023 8:00:00 PM 6.64 43.952 7.47 10.9 -5
1/12/2023 8:15:00 PM 7.39 45.302 7.48 10.91 -5
1/12/2023 8:30:00 PM 6.52 43.736 7.47 10.86 -5
1/12/2023 8:45:00 PM 6.75 44.15 7.47 10.86 -5
1/12/2023 9:00:00 PM 7.02 44.636 7.46 10.85 -5
1/12/2023 9:15:00 PM 6.64 43.952 7.46 10.81 -5
1/12/2023 9:30:00 PM 6.52 43.736 7.47 10.73 -5
1/12/2023 9:45:00 PM 6.52 43.736 7.48 10.65 -5
1/12/2023 10:00:00 PM 6.64 43.952 7.48 10.63 -5
1/12/2023 10:15:00 PM 6.64 43.952 7.48 10.5 -5
1/12/2023 10:30:00 PM 6.64 43.952 7.48 10.55 -5
1/12/2023 10:45:00 PM 6.41 43.538 7.47 10.48 -5
1/12/2023 11:00:00 PM 6.9 44.42 7.47 10.52 -5
1/12/2023 11:15:00 PM 6.78 44.204 7.47 10.62 -5
1/12/2023 11:30:00 PM 6.9 44.42 7.47 10.61 -5
1/12/2023 11:45:00 PM 6.78 44.204 7.47 10.51 -5
1/13/2023 12:00:00 AM 6.64 43.952 7.48 10.55 -5
1/13/2023 12:15:00 AM 6.66 43.988 7.47 10.56 -5
1/13/2023 12:30:00 AM 6.64 43.952 7.47 10.49 -5
1/13/2023 12:45:00 AM 6.78 44.204 7.46 10.58 -5
1/13/2023 1:00:00 AM 7.16 44.888 7.46 10.91 -5
1/13/2023 1:15:00 AM 6.78 44.204 7.47 10.8 -5
1/13/2023 1:30:00 AM 6.78 44.204 7.47 10.82 -5
1/13/2023 1:45:00 AM 7.27 45.086 7.46 10.57 -5
1/13/2023 2:00:00 AM 6.9 44.42 7.47 10.59 -5
1/13/2023 2:15:00 AM 6.63 43.934 7.46 10.58 -5
1/13/2023 2:30:00 AM 6.78 44.204 7.46 10.6 -5
1/13/2023 2:45:00 AM 6.78 44.204 7.47 10.67 -5
1/13/2023 3:00:00 AM 6.78 44.204 7.46 10.61 -5
1/13/2023 3:15:00 AM 6.9 44.42 7.46 10.49 -5
1/13/2023 3:30:00 AM 6.64 43.952 7.46 10.37 -5
1/13/2023 3:45:00 AM 7.02 44.636 7.46 10.38 -5
1/13/2023 4:00:00 AM 6.78 44.204 7.46 10.45 -5
1/13/2023 4:15:00 AM 6.9 44.42 7.46 10.41 -5
1/13/2023 4:30:00 AM 7.03 44.654 7.46 10.33 -5
1/13/2023 4:45:00 AM 6.52 43.736 7.46 10.49 -5
1/13/2023 5:00:00 AM 6.98 44.564 7.46 10.54 -5
1/13/2023 5:15:00 AM 6.63 43.934 7.46 10.53 -5
1/13/2023 5:30:00 AM 6.64 43.952 7.46 10.56 -5
1/13/2023 5:45:00 AM 6.64 43.952 7.46 10.53 -5
1/13/2023 6:00:00 AM 6.9 44.42 7.46 10.56 -5
1/13/2023 6:15:00 AM 6.64 43.952 7.46 10.47 -5
1/13/2023 6:30:00 AM 6.64 43.952 7.46 10.5 -5
1/13/2023 6:45:00 AM 6.52 43.736 7.45 10.43 -5
1/13/2023 7:00:00 AM 6.41 43.538 7.46 10.45 -5
1/13/2023 7:15:00 AM 6.41 43.538 7.45 9.81 -5
1/13/2023 7:30:00 AM 6.78 44.204 7.45 9.85 -5
1/13/2023 7:45:00 AM 7.02 44.636 7.44 9.94 -5
1/13/2023 8:00:00 AM 6.9 44.42 7.45 10.03 -5
1/13/2023 8:15:00 AM 7.16 44.888 7.45 10.31 -5
1/13/2023 8:30:00 AM 6.78 44.204 7.45 10.2 -5
1/13/2023 8:45:00 AM 6.78 44.204 7.45 10.09 -5
1/13/2023 9:00:00 AM 6.9 44.42 7.44 10.16 -5
1/13/2023 9:15:00 AM 7.02 44.636 7.44 10.39 -5
1/13/2023 9:30:00 AM 6.91 44.438 7.44 10.34 -5
1/13/2023 9:45:00 AM 6.79 44.222 7.44 10.31 -5
1/13/2023 10:00:00 AM 6.9 44.42 7.44 10.29 -5
1/13/2023 10:15:00 AM 6.78 44.204 7.45 10.29 -5
1/13/2023 10:30:00 AM 6.9 44.42 7.45 10.34 -5
1/13/2023 10:45:00 AM 6.64 43.952 7.45 10.2 -5
1/13/2023 11:00:00 AM 6.64 43.952 7.45 10.19 -5
1/13/2023 11:15:00 AM 6.9 44.42 7.46 10.2 -5
1/13/2023 11:30:00 AM 6.63 43.934 7.46 10.24 -5
1/13/2023 11:45:00 AM 6.78 44.204 7.44 10.13 -5
1/13/2023 12:00:00 PM 7.02 44.636 7.45 10.14 -5
1/13/2023 12:15:00 PM 6.78 44.204 7.46 10.18 -5
1/13/2023 12:30:00 PM 6.78 44.204 7.46 10.16 -5
1/13/2023 12:45:00 PM 7.02 44.636 7.46 10.04 -5
1/13/2023 1:00:00 PM 7.27 45.086 7.45 10.04 -5
1/13/2023 1:15:00 PM 7.16 44.888 7.46 10.01 -5
1/13/2023 1:30:00 PM 7.16 44.888 7.47 10.06 -5
1/13/2023 1:45:00 PM 7.4 45.32 7.48 9.95 -5
1/13/2023 2:00:00 PM 7.4 45.32 7.49 9.97 -5
1/13/2023 2:15:00 PM 7.4 45.32 7.49 10.08 -5
1/13/2023 2:30:00 PM 7.27 45.086 7.48 10.04 -5
1/13/2023 2:45:00 PM 7.02 44.636 7.47 10.08 -5
1/13/2023 3:00:00 PM 7.16 44.888 7.45 10.2 -5
1/13/2023 3:15:00 PM 7.27 45.086 7.46 10.33 -5
1/13/2023 3:30:00 PM 7.16 44.888 7.47 10.21 -5
1/13/2023 3:45:00 PM 6.89 44.402 7.47 10.19 -5
1/13/2023 4:00:00 PM 7.27 45.086 7.48 10.21 -5
1/13/2023 4:15:00 PM 7.53 45.554 7.48 10.2 -5
1/13/2023 4:30:00 PM 7.4 45.32 7.48 10.31 -5
1/13/2023 4:45:00 PM 7.53 45.554 7.47 10.45 -5
1/13/2023 5:00:00 PM 7.27 45.086 7.47 10.6 -5
1/13/2023 5:15:00 PM 7.53 45.554 7.46 10.89 -5
1/13/2023 5:30:00 PM 7.65 45.77 7.46 11.17 -5
1/13/2023 5:45:00 PM 7.27 45.086 7.45 11.55 -5
1/13/2023 6:00:00 PM 7.16 44.888 7.44 11.81 -5
1/13/2023 6:15:00 PM 7.53 45.554 7.45 11.8 -5
1/13/2023 6:30:00 PM 7.07 44.726 7.46 11.75 -5
1/13/2023 6:45:00 PM 7.02 44.636 7.46 11.78 -5
1/13/2023 7:00:00 PM 7.53 45.554 7.45 11.73 -5
1/13/2023 7:15:00 PM 7.02 44.636 7.45 11.6 -5
1/13/2023 7:30:00 PM 7.27 45.086 7.45 11.59 -5
1/13/2023 7:45:00 PM 7.27 45.086 7.44 11.61 -5
1/13/2023 8:00:00 PM 7.53 45.554 7.44 11.82 -5
1/13/2023 8:15:00 PM 7.4 45.32 7.44 11.72 -5
1/13/2023 8:30:00 PM 7.27 45.086 7.44 11.62 -5
1/13/2023 8:45:00 PM 7.02 44.636 7.44 11.66 -5
1/13/2023 9:00:00 PM 7.27 45.086 7.44 11.7 -5
1/13/2023 9:15:00 PM 7.02 44.636 7.44 11.7 -5
1/13/2023 9:30:00 PM 7.39 45.302 7.44 11.57 -5
1/13/2023 9:45:00 PM 7.27 45.086 7.44 11.74 -5
1/13/2023 10:00:00 PM 6.9 44.42 7.43 11.54 -5
1/13/2023 10:15:00 PM 6.9 44.42 7.42 11.72 -5
1/13/2023 10:30:00 PM 7.02 44.636 7.42 11.82 -5
1/13/2023 10:45:00 PM 7.16 44.888 7.42 11.83 -5
1/13/2023 11:00:00 PM 7.27 45.086 7.42 11.8 -5
1/13/2023 11:15:00 PM 7.02 44.636 7.43 11.76 -5
1/13/2023 11:30:00 PM 7.27 45.086 7.42 11.82 -5
1/13/2023 11:45:00 PM 6.78 44.204 7.41 11.79 -5
1/14/2023 12:00:00 AM 6.79 44.222 7.41 11.86 -5
1/14/2023 12:15:00 AM 7.16 44.888 7.39 11.8 -5
1/14/2023 12:30:00 AM 6.64 43.952 7.4 11.78 -5
1/14/2023 12:45:00 AM 6.63 43.934 7.4 11.93 -5
1/14/2023 1:00:00 AM 6.52 43.736 7.41 12 -5
1/14/2023 1:15:00 AM 7.02 44.636 7.4 12.02 -5
1/14/2023 1:30:00 AM 6.63 43.934 7.41 11.92 -5
1/14/2023 1:45:00 AM 7.02 44.636 7.41 11.96 -5
1/14/2023 2:00:00 AM 6.78 44.204 7.4 12.1 -5
1/14/2023 2:15:00 AM 7.02 44.636 7.4 12.14 -5
1/14/2023 2:30:00 AM 7.02 44.636 7.41 12.07 -5
1/14/2023 2:45:00 AM 6.78 44.204 7.41 12.01 -5
1/14/2023 3:00:00 AM 6.78 44.204 7.41 12.23 -5
1/14/2023 3:15:00 AM 6.64 43.952 7.41 12.22 -5
1/14/2023 3:30:00 AM 6.89 44.402 7.41 12.23 -5
1/14/2023 3:45:00 AM 6.9 44.42 7.41 12.24 -5
1/14/2023 4:00:00 AM 6.78 44.204 7.41 12.27 -5
1/14/2023 4:15:00 AM 6.9 44.42 7.41 12.24 -5
1/14/2023 4:30:00 AM 7.02 44.636 7.42 12.27 -5
1/14/2023 4:45:00 AM 6.9 44.42 7.41 12.39 -5
1/14/2023 5:00:00 AM 7.02 44.636 7.42 12.21 -5
1/14/2023 5:15:00 AM 7.02 44.636 7.41 12.22 -5
1/14/2023 5:30:00 AM 7.16 44.888 7.41 12.53 -5
1/14/2023 5:45:00 AM 7.02 44.636 7.41 12.45 -5
1/14/2023 6:00:00 AM 7.02 44.636 7.4 12.34 -5
1/14/2023 6:15:00 AM 7.16 44.888 7.41 12.4 -5
1/14/2023 6:30:00 AM 6.78 44.204 7.39 12.5 -5
1/14/2023 6:45:00 AM 6.52 43.736 7.39 12.55 -5
1/14/2023 7:00:00 AM 6.63 43.934 7.38 12.56 -5
1/14/2023 7:15:00 AM 6.78 44.204 7.39 12.76 -5
1/14/2023 7:30:00 AM 6.9 44.42 7.38 12.71 -5
1/14/2023 7:45:00 AM 6.63 43.934 7.38 12.83 -5
1/14/2023 8:00:00 AM 6.78 44.204 7.38 12.85 -5
1/14/2023 8:15:00 AM 6.52 43.736 7.38 12.91 -5
1/14/2023 8:30:00 AM 6.78 44.204 7.4 13.08 -5
1/14/2023 8:45:00 AM 6.78 44.204 7.38 12.91 -5
1/14/2023 9:00:00 AM 6.78 44.204 7.39 13.09 -5
1/14/2023 9:15:00 AM 6.41 43.538 7.38 13.22 -5
1/14/2023 9:30:00 AM 6.63 43.934 7.4 13.25 -5
1/14/2023 9:45:00 AM 6.52 43.736 7.4 13.26 -5
1/14/2023 10:00:00 AM 6.26 43.268 7.41 13.34 -5
1/14/2023 10:15:00 AM 6.63 43.934 7.4 13.61 -5
1/14/2023 10:30:00 AM 6.15 43.07 7.39 13.98 -5
1/14/2023 10:45:00 AM 6.41 43.538 7.39 14.21 -5
1/14/2023 11:00:00 AM 6.52 43.736 7.41 14.11 -5
1/14/2023 11:15:00 AM 6.81 44.258 7.41 14.11 -5
1/14/2023 11:30:00 AM 6.52 43.736 7.41 14.15 -5
1/14/2023 11:45:00 AM 6.78 44.204 7.41 14.06 -5
1/14/2023 12:00:00 PM 6.26 43.268 7.42 14.33 -5
1/14/2023 12:15:00 PM 6.52 43.736 7.43 14.47 -5
1/14/2023 12:30:00 PM 6.63 43.934 7.42 14.46 -5
1/14/2023 12:45:00 PM 6.26 43.268 7.43 14.44 -5
1/14/2023 1:00:00 PM 6.15 43.07 7.44 14.43 -5
1/14/2023 1:15:00 PM 6.63 43.934 7.45 14.46 -5
1/14/2023 1:30:00 PM 6.15 43.07 7.44 14.57 -5
1/14/2023 1:45:00 PM 6.52 43.736 7.44 14.51 -5
1/14/2023 2:00:00 PM 6.15 43.07 7.44 14.38 -5
1/14/2023 2:15:00 PM 6.41 43.538 7.43 14.46 -5
1/14/2023 2:30:00 PM 6.52 43.736 7.44 14.5 -5
1/14/2023 2:45:00 PM 6.52 43.736 7.45 14.51 -5
1/14/2023 3:00:00 PM 6.41 43.538 7.44 14.48 -5
1/14/2023 3:15:00 PM 6.52 43.736 7.43 14.52 -5
1/14/2023 3:30:00 PM 6.9 44.42 7.43 14.34 -5
1/14/2023 3:45:00 PM 6.26 43.268 7.43 14.32 -5
1/14/2023 4:00:00 PM 6.63 43.934 7.43 14.11 -5
1/14/2023 4:15:00 PM 6.41 43.538 7.43 14.26 -5
1/14/2023 4:30:00 PM 6.4 43.52 7.42 14.21 -5
1/14/2023 4:45:00 PM 6.26 43.268 7.42 14.9 -5
1/14/2023 5:00:00 PM 6.15 43.07 7.43 14.25 -5
1/14/2023 5:15:00 PM 6.41 43.538 7.42 14.07 -5
1/14/2023 5:30:00 PM 6.63 43.934 7.43 14.28 -5
1/14/2023 5:45:00 PM 6.26 43.268 7.42 14.46 -5
1/14/2023 6:00:00 PM 6.26 43.268 7.43 14.28 -5
1/14/2023 6:15:00 PM 5.78 42.404 7.43 14.2 -5
1/14/2023 6:30:00 PM 6.26 43.268 7.42 14.11 -5
1/14/2023 6:45:00 PM 6.52 43.736 7.41 14.3 -5
1/14/2023 7:00:00 PM 6.26 43.268 7.42 14.15 -5
1/14/2023 7:15:00 PM 6.52 43.736 7.4 14.49 -5
1/14/2023 7:30:00 PM 6.26 43.268 7.4 15.62 -5
1/14/2023 7:45:00 PM 6.26 43.268 7.42 15.2 -5
1/14/2023 8:00:00 PM 6.52 43.736 7.43 14.84 -5
1/14/2023 8:15:00 PM 5.89 42.602 7.45 14.81 -5
1/14/2023 8:30:00 PM 5.89 42.602 7.45 14.68 -5
1/14/2023 8:45:00 PM 5.9 42.62 7.46 14.26 -5
1/14/2023 9:00:00 PM 6.15 43.07 7.45 14.27 -5
1/14/2023 9:15:00 PM 6.26 43.268 7.42 14.13 -5
1/14/2023 9:30:00 PM 6.02 42.836 7.4 14.15 -5
1/14/2023 9:45:00 PM 6.52 43.736 7.41 14.08 -5
1/14/2023 10:00:00 PM 6.15 43.07 7.42 14.12 -5
1/14/2023 10:15:00 PM 5.89 42.602 7.42 14.11 -5
1/14/2023 10:30:00 PM 6.52 43.736 7.43 14.19 -5
1/14/2023 10:45:00 PM 6.03 42.854 7.47 14.42 -5
1/14/2023 11:00:00 PM 5.78 42.404 7.45 14.37 -5
1/14/2023 11:15:00 PM 6.26 43.268 7.47 14.48 -5
1/14/2023 11:30:00 PM 6.15 43.07 7.47 14.43 -5
1/14/2023 11:45:00 PM 6.26 43.268 7.47 14.61 -5
1/15/2023 12:00:00 AM 6.41 43.538 7.47 14.44 -5
1/15/2023 12:15:00 AM 6.02 42.836 7.5 14.52 -5
1/15/2023 12:30:00 AM 5.65 42.17 7.52 14.68 -5
1/15/2023 12:45:00 AM 6.26 43.268 7.54 14.48 -5
1/15/2023 1:00:00 AM 6.02 42.836 7.44 14.43 -5
1/15/2023 1:15:00 AM 6.02 42.836 7.5 14.41 -5
1/15/2023 1:30:00 AM 5.89 42.602 7.52 14.32 -5
1/15/2023 1:45:00 AM 6.15 43.07 7.53 14.23 -5
1/15/2023 2:00:00 AM 6.15 43.07 7.54 14.06 -5
1/15/2023 2:15:00 AM 5.89 42.602 7.52 14.07 -5
1/15/2023 2:30:00 AM 5.78 42.404 7.52 14.03 -5
1/15/2023 2:45:00 AM 5.89 42.602 7.52 13.86 -5
1/15/2023 3:00:00 AM 5.89 42.602 7.5 13.87 -5
1/15/2023 3:15:00 AM 5.39 41.702 7.51 13.89 -5
1/15/2023 3:30:00 AM 5.52 41.936 7.5 13.9 -5
1/15/2023 3:45:00 AM 5.65 42.17 7.51 13.8 -5
1/15/2023 4:00:00 AM 5.65 42.17 7.5 13.83 -5
1/15/2023 4:15:00 AM 5.65 42.17 7.49 13.78 -5
1/15/2023 4:30:00 AM 5.74 42.332 7.49 13.79 -5
1/15/2023 4:45:00 AM 5.39 41.702 7.49 13.75 -5
1/15/2023 5:00:00 AM 5.65 42.17 7.49 13.7 -5
1/15/2023 5:15:00 AM 5.52 41.936 7.49 13.92 -5
1/15/2023 5:30:00 AM 5.52 41.936 7.49 13.98 -5
1/15/2023 5:45:00 AM 5.28 41.504 7.49 13.91 -5
1/15/2023 6:00:00 AM 5.39 41.702 7.5 13.83 -5
1/15/2023 6:15:00 AM 5.39 41.702 7.5 13.68 -5
1/15/2023 6:30:00 AM 5.51 41.918 7.5 13.82 -5
1/15/2023 6:45:00 AM 5.89 42.602 7.5 13.73 -5
1/15/2023 7:00:00 AM 5.52 41.936 7.5 13.76 -5
1/15/2023 7:15:00 AM 5.39 41.702 7.5 13.29 -5
1/15/2023 7:30:00 AM 5.28 41.504 7.49 12.97 -5
1/15/2023 7:45:00 AM 5.02 41.036 7.47 13.2 -5
1/15/2023 8:00:00 AM 4.76 40.568 7.46 13.4 -5
1/15/2023 8:15:00 AM 5.14 41.252 7.47 13.83 -5
1/15/2023 8:30:00 AM 4.91 40.838 7.45 13.81 -5
1/15/2023 8:45:00 AM 4.76 40.568 7.46 13.8 -5
1/15/2023 9:00:00 AM 4.76 40.568 7.48 13.99 -5
1/15/2023 9:15:00 AM 5.28 41.504 7.48 14.01 -5
1/15/2023 9:30:00 AM 5.14 41.252 7.49 14.12 -5
1/15/2023 9:45:00 AM 4.65 40.37 7.49 14.31 -5
1/15/2023 10:00:00 AM 5.14 41.252 7.5 14.25 -5
1/15/2023 10:15:00 AM 5.14 41.252 7.51 14.1 -5
1/15/2023 10:30:00 AM 5.14 41.252 7.51 14.1 -5
1/15/2023 10:45:00 AM 4.76 40.568 7.51 14.09 -5
1/15/2023 11:00:00 AM 4.76 40.568 7.51 13.9 -5
1/15/2023 11:15:00 AM 5.14 41.252 7.52 13.71 -5
1/15/2023 11:30:00 AM 5.02 41.036 7.51 13.74 -5
1/15/2023 11:45:00 AM 5.02 41.036 7.52 13.68 -5
1/15/2023 12:00:00 PM 5.14 41.252 7.52 13.71 -5
1/15/2023 12:15:00 PM 5.03 41.054 7.52 14.02 -5
1/15/2023 12:30:00 PM 5.52 41.936 7.53 13.97 -5
1/15/2023 12:45:00 PM 5.39 41.702 7.53 13.75 -5
1/15/2023 1:00:00 PM 5.52 41.936 7.54 13.71 -5
1/15/2023 1:15:00 PM 5.14 41.252 7.56 13.58 -5
1/15/2023 1:30:00 PM 5.02 41.036 7.56 13.48 -5
1/15/2023 1:45:00 PM 5.52 41.936 7.55 13.46 -5
1/15/2023 2:00:00 PM 5.39 41.702 7.54 13.56 -5
1/15/2023 2:15:00 PM 5.52 41.936 7.55 13.45 -5
1/15/2023 2:30:00 PM 5.39 41.702 7.56 13.51 -5
1/15/2023 2:45:00 PM 5.39 41.702 7.56 13.52 -5
1/15/2023 3:00:00 PM 5.52 41.936 7.57 13.49 -5
1/15/2023 3:15:00 PM 5.52 41.936 7.57 13.62 -5
1/15/2023 3:30:00 PM 5.78 42.404 7.57 13.56 -5
1/15/2023 3:45:00 PM 5.52 41.936 7.56 13.58 -5
1/15/2023 4:00:00 PM 5.89 42.602 7.56 13.52 -5
1/15/2023 4:15:00 PM 5.89 42.602 7.56 13.47 -5
1/15/2023 4:30:00 PM 5.78 42.404 7.56 13.48 -5
1/15/2023 4:45:00 PM 5.65 42.17 7.56 13.54 -5
1/15/2023 5:00:00 PM 6.02 42.836 7.56 13.65 -5
1/15/2023 5:15:00 PM 5.52 41.936 7.55 13.56 -5
1/15/2023 5:30:00 PM 5.65 42.17 7.55 13.64 -5
1/15/2023 5:45:00 PM 5.52 41.936 7.55 13.8 -5
1/15/2023 6:00:00 PM 5.65 42.17 7.55 13.92 -5
1/15/2023 6:15:00 PM 5.89 42.602 7.55 14.01 -5
1/15/2023 6:30:00 PM 5.28 41.504 7.55 13.92 -5
1/15/2023 6:45:00 PM 6.15 43.07 7.55 14.01 -5
1/15/2023 7:00:00 PM 5.52 41.936 7.54 15.09 -5
1/15/2023 7:15:00 PM 5.65 42.17 7.54 14.28 -5
1/15/2023 7:30:00 PM 5.65 42.17 7.55 14.26 -5
1/15/2023 7:45:00 PM 5.78 42.404 7.55 14.21 -5
1/15/2023 8:00:00 PM 5.65 42.17 7.55 14.1 -5
1/15/2023 8:15:00 PM 5.52 41.936 7.55 13.96 -5
1/15/2023 8:30:00 PM 5.77 42.386 7.55 13.99 -5
1/15/2023 8:45:00 PM 5.89 42.602 7.55 14.15 -5
1/15/2023 9:00:00 PM 6.15 43.07 7.55 13.79 -5
1/15/2023 9:15:00 PM 6.03 42.854 7.55 13.89 -5
1/15/2023 9:30:00 PM 6.15 43.07 7.54 13.72 -5
1/15/2023 9:45:00 PM 5.89 42.602 7.55 13.6 -5
1/15/2023 10:00:00 PM 5.78 42.404 7.54 13.75 -5
1/15/2023 10:15:00 PM 6.15 43.07 7.54 13.72 -5
1/15/2023 10:30:00 PM 6.63 43.934 7.55 13.71 -5
1/15/2023 10:45:00 PM 6.15 43.07 7.54 13.79 -5
1/15/2023 11:00:00 PM 6.02 42.836 7.54 13.56 -5
1/15/2023 11:15:00 PM 6.15 43.07 7.55 13.74 -5
1/15/2023 11:30:00 PM 6.02 42.836 7.54 13.74 -5
1/15/2023 11:45:00 PM 6.78 44.204 7.54 13.6 -5
1/16/2023 12:00:00 AM 6.26 43.268 7.54 13.73 -5
1/16/2023 12:15:00 AM 6.02 42.836 7.53 13.69 -5
1/16/2023 12:30:00 AM 6.41 43.538 7.53 13.63 -5
1/16/2023 12:45:00 AM 6.41 43.538 7.53 13.67 -5
1/16/2023 1:00:00 AM 6.26 43.268 7.53 13.48 -5
1/16/2023 1:15:00 AM 5.65 42.17 7.52 13.53 -5
1/16/2023 1:30:00 AM 5.89 42.602 7.57 13.61 -5
1/16/2023 1:45:00 AM 5.78 42.404 7.55 13.72 -5
1/16/2023 2:00:00 AM 5.96 42.728 7.55 13.71 -5
1/16/2023 2:15:00 AM 5.65 42.17 7.54 13.68 -5
1/16/2023 2:30:00 AM 5.74 42.332 7.55 13.74 -5
1/16/2023 2:45:00 AM 6.15 43.07 7.5 13.7 -5
1/16/2023 3:00:00 AM 5.78 42.404 7.54 13.76 -5
1/16/2023 3:15:00 AM 6.15 43.07 7.54 13.71 -5
1/16/2023 3:30:00 AM 6.26 43.268 7.52 13.53 -5
1/16/2023 3:45:00 AM 5.78 42.404 7.53 13.47 -5
1/16/2023 4:00:00 AM 5.78 42.404 7.55 13.37 -5
1/16/2023 4:15:00 AM 5.78 42.404 7.56 13.35 -5
1/16/2023 4:30:00 AM 5.39 41.702 7.55 13.42 -5
1/16/2023 4:45:00 AM 6.02 42.836 7.56 13.55 -5
1/16/2023 5:00:00 AM 5.52 41.936 7.55 13.56 -5
1/16/2023 5:15:00 AM 5.65 42.17 7.5 13.81 -5
1/16/2023 5:30:00 AM 5.28 41.504 7.54 13.71 -5
1/16/2023 5:45:00 AM 5.39 41.702 7.55 13.53 -5
1/16/2023 6:00:00 AM 5.52 41.936 7.57 13.65 -5
1/16/2023 6:15:00 AM 5.14 41.252 7.58 13.65 -5
1/16/2023 6:30:00 AM 5.65 42.17 7.57 13.63 -5
1/16/2023 6:45:00 AM 5.28 41.504 7.61 13.58 -5
1/16/2023 7:00:00 AM 5.28 41.504 7.59 13.51 -5
1/16/2023 7:15:00 AM 5.02 41.036 7.6 13.75 -5
1/16/2023 7:30:00 AM 5.02 41.036 7.58 13.61 -5
1/16/2023 7:45:00 AM 5.02 41.036 7.6 13.24 -5
1/16/2023 8:00:00 AM 5.28 41.504 7.59 13.12 -5
1/16/2023 8:15:00 AM 5.28 41.504 7.57 13.11 -5
1/16/2023 8:30:00 AM 4.76 40.568 7.48 13.19 -5
1/16/2023 8:45:00 AM 5.39 41.702 7.5 13.09 -5
1/16/2023 9:00:00 AM 4.76 40.568 7.59 12.89 -5
1/16/2023 9:15:00 AM 5.14 41.252 7.58 12.9 -5
1/16/2023 9:30:00 AM 4.91 40.838 7.56 13.12 -5
1/16/2023 9:45:00 AM 4.76 40.568 7.55 12.9 -5
1/16/2023 10:00:00 AM 5.28 41.504 7.56 13.06 -5
1/16/2023 10:15:00 AM 4.77 40.586 7.55 12.93 -5
1/16/2023 10:30:00 AM 4.91 40.838 7.55 12.91 -5
1/16/2023 10:45:00 AM 5.02 41.036 7.54 13.06 -5
1/16/2023 11:00:00 AM 4.76 40.568 7.54 13.47 -5
1/16/2023 11:15:00 AM 4.76 40.568 7.54 13.15 -5
1/16/2023 11:30:00 AM 4.76 40.568 7.55 13.15 -5
1/16/2023 11:45:00 AM 5.15 41.27 7.55 13.22 -5
1/16/2023 12:00:00 PM 5.02 41.036 7.55 13.24 -5
1/16/2023 12:15:00 PM 5.39 41.702 7.55 13.18 -5
1/16/2023 12:30:00 PM 4.91 40.838 7.55 13.13 -5
1/16/2023 12:45:00 PM 5.23 41.414 7.56 13.2 -5
1/16/2023 1:00:00 PM 5.02 41.036 7.57 13.25 -5
1/16/2023 1:15:00 PM 5.14 41.252 7.55 13.19 -5
1/16/2023 1:30:00 PM 5.02 41.036 7.57 13.16 -5
1/16/2023 1:45:00 PM 5.39 41.702 7.58 13.14 -5
1/16/2023 2:00:00 PM 5.39 41.702 7.58 13.22 -5
1/16/2023 2:15:00 PM 5.65 42.17 7.58 13.25 -5
1/16/2023 2:30:00 PM 5.78 42.404 7.57 13.2 -5
1/16/2023 2:45:00 PM 5.52 41.936 7.57 13.39 -5
1/16/2023 3:00:00 PM 5.52 41.936 7.59 13.53 -5
1/16/2023 3:15:00 PM 5.65 42.17 7.58 13.52 -5
1/16/2023 3:30:00 PM 6.02 42.836 7.59 13.62 -5
1/16/2023 3:45:00 PM 5.91 42.638 7.58 13.53 -5
1/16/2023 4:00:00 PM 5.89 42.602 7.59 13.45 -5
1/16/2023 4:15:00 PM 5.65 42.17 7.59 13.6 -5
1/16/2023 4:30:00 PM 5.78 42.404 7.58 13.51 -5
1/16/2023 4:45:00 PM 5.78 42.404 7.58 13.55 -5
1/16/2023 5:00:00 PM 5.28 41.504 7.57 14 -5
1/16/2023 5:15:00 PM 5.89 42.602 7.57 13.84 -5
1/16/2023 5:30:00 PM 5.89 42.602 7.57 14.06 -5
1/16/2023 5:45:00 PM 5.65 42.17 7.57 13.96 -5
1/16/2023 6:00:00 PM 6.15 43.07 7.58 13.96 -5